Observation data for Van Horn on 09/25/2020      Previous  Date  Next       Current Mesonet Observations  Soil Data  Daily Summary Page  Observations in Plain Language
KVA1 250500Z 28003KT 19/07 A3007 RMK A01 T01940066  RH  043%=      5-min Rain = 0
KVA1 250501Z 29003KT 19/07 A3007 RMK A01 T01920066  RH  044%=      5-min Rain = 0
KVA1 250502Z 29003KT 19/07 A3007 RMK A01 T01920066  RH  044%=      5-min Rain = 0
KVA1 250503Z 28003KT 19/07 A3007 RMK A01 T01920067  RH  044%=      5-min Rain = 0
KVA1 250504Z 26004KT 19/07 A3007 RMK A01 T01930067  RH  044%=      5-min Rain = 0
KVA1 250505Z 26003KT 19/07 A3007 RMK A01 T01930066  RH  044%=      5-min Rain = 0
KVA1 250506Z 27003KT 19/07 A3007 RMK A01 T01930066  RH  044%=      5-min Rain = 0
KVA1 250507Z 28003KT 19/07 A3007 RMK A01 T01930066  RH  044%=      5-min Rain = 0
KVA1 250508Z 27002KT 19/07 A3007 RMK A01 T01920066  RH  044%=      5-min Rain = 0
KVA1 250509Z 27003KT 19/07 A3007 RMK A01 T01920066  RH  044%=      5-min Rain = 0
KVA1 250510Z 28003KT 19/07 A3007 RMK A01 T01920066  RH  044%=      5-min Rain = 0
KVA1 250511Z 28003KT 19/07 A3007 RMK A01 T01920067  RH  044%=      5-min Rain = 0
KVA1 250512Z 28004KT 19/07 A3007 RMK A01 T01920067  RH  044%=      5-min Rain = 0
KVA1 250513Z 28004KT 19/07 A3007 RMK A01 T01920067  RH  044%=      5-min Rain = 0
KVA1 250514Z 29004KT 19/07 A3007 RMK A01 T01920066  RH  044%=      5-min Rain = 0
KVA1 250515Z 30004KT 19/07 A3007 RMK A01 T01910066  RH  044%=      5-min Rain = 0
KVA1 250516Z 30004KT 19/07 A3007 RMK A01 T01920065  RH  044%=      5-min Rain = 0
KVA1 250517Z 29004KT 19/07 A3007 RMK A01 T01920066  RH  044%=      5-min Rain = 0
KVA1 250518Z 28004KT 19/07 A3007 RMK A01 T01920066  RH  044%=      5-min Rain = 0
KVA1 250519Z 27004KT 19/07 A3007 RMK A01 T01920066  RH  044%=      5-min Rain = 0
KVA1 250520Z 27005KT 19/07 A3007 RMK A01 T01920065  RH  044%=      5-min Rain = 0
KVA1 250521Z 26005KT 19/07 A3007 RMK A01 T01920065  RH  044%=      5-min Rain = 0
KVA1 250522Z 26005KT 19/07 A3007 RMK A01 T01920065  RH  044%=      5-min Rain = 0
KVA1 250523Z 26005KT 19/07 A3007 RMK A01 T01920065  RH  043%=      5-min Rain = 0
KVA1 250524Z 26005KT 19/07 A3007 RMK A01 T01920065  RH  043%=      5-min Rain = 0
KVA1 250525Z 26005KT 19/07 A3007 RMK A01 T01920065  RH  043%=      5-min Rain = 0
KVA1 250526Z 26005KT 19/07 A3007 RMK A01 T01920065  RH  043%=      5-min Rain = 0
KVA1 250527Z 26005KT 19/07 A3007 RMK A01 T01920065  RH  044%=      5-min Rain = 0
KVA1 250528Z 26005KT 19/07 A3007 RMK A01 T01920065  RH  044%=      5-min Rain = 0
KVA1 250529Z 27005KT 19/07 A3007 RMK A01 T01910065  RH  044%=      5-min Rain = 0
KVA1 250530Z 27005KT 19/07 A3007 RMK A01 T01910065  RH  044%=      5-min Rain = 0
KVA1 250531Z 27005KT 19/07 A3007 RMK A01 T01910065  RH  044%=      5-min Rain = 0
KVA1 250532Z 26005KT 19/07 A3007 RMK A01 T01910065  RH  044%=      5-min Rain = 0
KVA1 250533Z 26005KT 19/07 A3007 RMK A01 T01910065  RH  044%=      5-min Rain = 0
KVA1 250534Z 26005KT 19/07 A3007 RMK A01 T01910065  RH  044%=      5-min Rain = 0
KVA1 250535Z 26005KT 19/06 A3007 RMK A01 T01910064  RH  044%=      5-min Rain = 0
KVA1 250536Z 26005KT 19/06 A3007 RMK A01 T01900064  RH  044%=      5-min Rain = 0
KVA1 250537Z 26005KT 19/06 A3007 RMK A01 T01900064  RH  044%=      5-min Rain = 0
KVA1 250538Z 25005KT 19/06 A3007 RMK A01 T01900064  RH  044%=      5-min Rain = 0
KVA1 250539Z 25005KT 19/06 A3007 RMK A01 T01890064  RH  044%=      5-min Rain = 0
KVA1 250540Z 25005KT 19/06 A3008 RMK A01 T01890064  RH  044%=      5-min Rain = 0
KVA1 250541Z 24005KT 19/06 A3008 RMK A01 T01900064  RH  044%=      5-min Rain = 0
KVA1 250542Z 23005KT 19/06 A3008 RMK A01 T01890064  RH  044%=      5-min Rain = 0
KVA1 250543Z 23005KT 19/07 A3008 RMK A01 T01900065  RH  044%=      5-min Rain = 0
KVA1 250544Z 22006KT 19/07 A3008 RMK A01 T01900065  RH  044%=      5-min Rain = 0
KVA1 250545Z 22006KT 19/07 A3008 RMK A01 T01900065  RH  044%=      5-min Rain = 0
KVA1 250546Z 22006KT 19/07 A3008 RMK A01 T01910065  RH  044%=      5-min Rain = 0
KVA1 250547Z 22006KT 19/07 A3008 RMK A01 T01910065  RH  044%=      5-min Rain = 0
KVA1 250548Z 21006KT 19/07 A3008 RMK A01 T01920065  RH  044%=      5-min Rain = 0
KVA1 250549Z 21006KT 19/07 A3008 RMK A01 T01930065  RH  043%=      5-min Rain = 0
KVA1 250550Z 20006KT 20/07 A3008 RMK A01 T01980066  RH  042%=      5-min Rain = 0
KVA1 250551Z 21006KT 20/07 A3008 RMK A01 T02020066  RH  041%=      5-min Rain = 0
KVA1 250552Z 21006KT 20/07 A3008 RMK A01 T02040066  RH  041%=      5-min Rain = 0
KVA1 250553Z 21006KT 21/07 A3008 RMK A01 T02050066  RH  040%=      5-min Rain = 0
KVA1 250554Z 21006KT 21/07 A3008 RMK A01 T02060066  RH  040%=      5-min Rain = 0
KVA1 250555Z 20007KT 21/07 A3008 RMK A01 T02060066  RH  040%=      5-min Rain = 0
KVA1 250556Z 20008KT 21/07 A3008 RMK A01 T02070066  RH  040%=      5-min Rain = 0
KVA1 250557Z 20008KT 21/07 A3008 RMK A01 T02080067  RH  040%=      5-min Rain = 0
KVA1 250558Z 19007KT 21/07 A3008 RMK A01 T02100068  RH  040%=      5-min Rain = 0
KVA1 250559Z 20008KT 21/07 A3008 RMK A01 T02110069  RH  040%=      5-min Rain = 0
KVA1 250600Z 19008KT 21/07 A3008 RMK A01 T02120069  RH  040%=      5-min Rain = 0
KVA1 250601Z 20007KT 21/07 A3008 RMK A01 T02120069  RH  040%=      5-min Rain = 0
KVA1 250602Z 20007KT 21/07 A3008 RMK A01 T02120069  RH  040%=      5-min Rain = 0
KVA1 250603Z 20006KT 21/07 A3008 RMK A01 T02120069  RH  040%=      5-min Rain = 0
KVA1 250604Z 20008KT 21/07 A3008 RMK A01 T02120070  RH  040%=      5-min Rain = 0
KVA1 250605Z 20007KT 21/07 A3008 RMK A01 T02110070  RH  040%=      5-min Rain = 0
KVA1 250606Z 21007KT 21/07 A3008 RMK A01 T02100070  RH  040%=      5-min Rain = 0
KVA1 250607Z 20008KT 21/07 A3008 RMK A01 T02090070  RH  041%=      5-min Rain = 0
KVA1 250608Z 20008KT 21/07 A3008 RMK A01 T02090071  RH  041%=      5-min Rain = 0
KVA1 250609Z 20007KT 21/07 A3008 RMK A01 T02090071  RH  041%=      5-min Rain = 0
KVA1 250610Z 20007KT 21/07 A3008 RMK A01 T02080071  RH  041%=      5-min Rain = 0
KVA1 250611Z 20007KT 21/07 A3008 RMK A01 T02080071  RH  041%=      5-min Rain = 0
KVA1 250612Z 20008KT 21/07 A3008 RMK A01 T02080071  RH  041%=      5-min Rain = 0
KVA1 250613Z 20008KT 21/07 A3008 RMK A01 T02080071  RH  041%=      5-min Rain = 0
KVA1 250614Z 20007KT 21/07 A3008 RMK A01 T02070071  RH  041%=      5-min Rain = 0
KVA1 250615Z 20008KT 21/07 A3008 RMK A01 T02070071  RH  041%=      5-min Rain = 0
KVA1 250616Z 21007KT 21/07 A3008 RMK A01 T02060071  RH  042%=      5-min Rain = 0
KVA1 250617Z 21007KT 21/07 A3008 RMK A01 T02060072  RH  042%=      5-min Rain = 0
KVA1 250618Z 21007KT 21/07 A3008 RMK A01 T02060072  RH  042%=      5-min Rain = 0
KVA1 250619Z 21007KT 21/07 A3008 RMK A01 T02050072  RH  042%=      5-min Rain = 0
KVA1 250620Z 22007KT 21/07 A3008 RMK A01 T02050072  RH  042%=      5-min Rain = 0
KVA1 250621Z 21007KT 21/07 A3008 RMK A01 T02050072  RH  042%=      5-min Rain = 0
KVA1 250622Z 22007KT 21/07 A3007 RMK A01 T02050072  RH  042%=      5-min Rain = 0
KVA1 250623Z 22006KT 21/07 A3007 RMK A01 T02050072  RH  042%=      5-min Rain = 0
KVA1 250624Z 22007KT 21/07 A3007 RMK A01 T02050072  RH  042%=      5-min Rain = 0
KVA1 250625Z 22007KT 21/07 A3007 RMK A01 T02050073  RH  042%=      5-min Rain = 0
KVA1 250626Z 22006KT 20/07 A3007 RMK A01 T02040072  RH  042%=      5-min Rain = 0
KVA1 250627Z 22007KT 20/07 A3007 RMK A01 T02040072  RH  042%=      5-min Rain = 0
KVA1 250628Z 22007KT 20/07 A3008 RMK A01 T02030072  RH  043%=      5-min Rain = 0
KVA1 250629Z 22007KT 20/07 A3008 RMK A01 T02030072  RH  043%=      5-min Rain = 0
KVA1 250630Z 22008KT 20/07 A3008 RMK A01 T02020072  RH  043%=      5-min Rain = 0
KVA1 250631Z 22008KT 20/07 A3008 RMK A01 T02010072  RH  043%=      5-min Rain = 0
KVA1 250632Z 22008KT 20/07 A3008 RMK A01 T02010073  RH  043%=      5-min Rain = 0
KVA1 250633Z 22008KT 20/07 A3007 RMK A01 T02010073  RH  044%=      5-min Rain = 0
KVA1 250634Z 22008KT 20/07 A3007 RMK A01 T02010073  RH  044%=      5-min Rain = 0
KVA1 250635Z 23007KT 20/07 A3007 RMK A01 T02010073  RH  044%=      5-min Rain = 0
KVA1 250636Z 23006KT 20/07 A3007 RMK A01 T01990073  RH  044%=      5-min Rain = 0
KVA1 250637Z 23007KT 20/07 A3007 RMK A01 T01980072  RH  044%=      5-min Rain = 0
KVA1 250638Z 24007KT 20/07 A3007 RMK A01 T01970073  RH  044%=      5-min Rain = 0
KVA1 250639Z 23007KT 20/07 A3007 RMK A01 T01960072  RH  045%=      5-min Rain = 0
KVA1 250640Z 23007KT 20/07 A3007 RMK A01 T01950073  RH  045%=      5-min Rain = 0
KVA1 250641Z 23007KT 20/07 A3007 RMK A01 T01950073  RH  045%=      5-min Rain = 0
KVA1 250642Z 22007KT 20/07 A3007 RMK A01 T01950074  RH  045%=      5-min Rain = 0
KVA1 250643Z 22007KT 20/08 A3007 RMK A01 T01960075  RH  045%=      5-min Rain = 0
KVA1 250644Z 22007KT 20/08 A3007 RMK A01 T01960075  RH  045%=      5-min Rain = 0
KVA1 250645Z 22007KT 20/08 A3007 RMK A01 T01960076  RH  046%=      5-min Rain = 0
KVA1 250646Z 22006KT 20/08 A3007 RMK A01 T01970077  RH  046%=      5-min Rain = 0
KVA1 250647Z 22006KT 20/08 A3007 RMK A01 T01980077  RH  045%=      5-min Rain = 0
KVA1 250648Z 22006KT 20/08 A3007 RMK A01 T01980077  RH  045%=      5-min Rain = 0
KVA1 250649Z 22007KT 20/08 A3007 RMK A01 T01980078  RH  046%=      5-min Rain = 0
KVA1 250650Z 22007KT 20/08 A3007 RMK A01 T01980078  RH  046%=      5-min Rain = 0
KVA1 250651Z 22006KT 20/08 A3007 RMK A01 T01980078  RH  046%=      5-min Rain = 0
KVA1 250652Z 23006KT 20/08 A3007 RMK A01 T01980078  RH  046%=      5-min Rain = 0
KVA1 250653Z 23007KT 20/08 A3007 RMK A01 T01980078  RH  046%=      5-min Rain = 0
KVA1 250654Z 23007KT 20/08 A3007 RMK A01 T01980079  RH  046%=      5-min Rain = 0
KVA1 250655Z 22007KT 20/08 A3007 RMK A01 T01980079  RH  046%=      5-min Rain = 0
KVA1 250656Z 23006KT 20/08 A3007 RMK A01 T01970079  RH  046%=      5-min Rain = 0
KVA1 250657Z 23006KT 20/08 A3007 RMK A01 T01970079  RH  046%=      5-min Rain = 0
KVA1 250658Z 22007KT 20/08 A3007 RMK A01 T01980079  RH  046%=      5-min Rain = 0
KVA1 250659Z 23006KT 20/08 A3007 RMK A01 T01970079  RH  046%=      5-min Rain = 0
KVA1 250700Z 23005KT 20/08 A3007 RMK A01 T01970079  RH  046%=      5-min Rain = 0
KVA1 250701Z 23005KT 20/08 A3007 RMK A01 T01960079  RH  047%=      5-min Rain = 0
KVA1 250702Z 24005KT 20/08 A3007 RMK A01 T01960079  RH  047%=      5-min Rain = 0
KVA1 250703Z 24005KT 20/08 A3007 RMK A01 T01950079  RH  047%=      5-min Rain = 0
KVA1 250704Z 24005KT 19/08 A3007 RMK A01 T01940079  RH  047%=      5-min Rain = 0
KVA1 250705Z 25006KT 19/08 A3007 RMK A01 T01940079  RH  047%=      5-min Rain = 0
KVA1 250706Z 25006KT 19/08 A3007 RMK A01 T01930079  RH  048%=      5-min Rain = 0
KVA1 250707Z 25006KT 19/08 A3007 RMK A01 T01920080  RH  048%=      5-min Rain = 0
KVA1 250708Z 25007KT 19/08 A3007 RMK A01 T01920080  RH  048%=      5-min Rain = 0
KVA1 250709Z 25008KT 19/08 A3007 RMK A01 T01920080  RH  048%=      5-min Rain = 0
KVA1 250710Z 25006KT 19/08 A3007 RMK A01 T01930081  RH  048%=      5-min Rain = 0
KVA1 250711Z 25006KT 19/08 A3007 RMK A01 T01930081  RH  048%=      5-min Rain = 0
KVA1 250712Z 25006KT 19/08 A3007 RMK A01 T01930081  RH  048%=      5-min Rain = 0
KVA1 250713Z 26006KT 19/08 A3007 RMK A01 T01930081  RH  048%=      5-min Rain = 0
KVA1 250714Z 25007KT 19/08 A3007 RMK A01 T01930081  RH  048%=      5-min Rain = 0
KVA1 250715Z 25007KT 19/08 A3007 RMK A01 T01930082  RH  048%=      5-min Rain = 0
KVA1 250716Z 25007KT 19/08 A3007 RMK A01 T01930082  RH  048%=      5-min Rain = 0
KVA1 250717Z 25007KT 19/08 A3007 RMK A01 T01930082  RH  049%=      5-min Rain = 0
KVA1 250718Z 25008KT 19/08 A3007 RMK A01 T01930082  RH  049%=      5-min Rain = 0
KVA1 250719Z 25007KT 19/08 A3007 RMK A01 T01930082  RH  049%=      5-min Rain = 0
KVA1 250720Z 24007KT 19/08 A3007 RMK A01 T01930082  RH  049%=      5-min Rain = 0
KVA1 250721Z 24007KT 19/08 A3007 RMK A01 T01930083  RH  049%=      5-min Rain = 0
KVA1 250722Z 24006KT 19/08 A3007 RMK A01 T01940083  RH  049%=      5-min Rain = 0
KVA1 250723Z 24007KT 19/08 A3007 RMK A01 T01940084  RH  049%=      5-min Rain = 0
KVA1 250724Z 24007KT 20/08 A3007 RMK A01 T01950084  RH  048%=      5-min Rain = 0
KVA1 250725Z 24007KT 20/08 A3007 RMK A01 T01960084  RH  048%=      5-min Rain = 0
KVA1 250726Z 24007KT 20/08 A3007 RMK A01 T01970084  RH  048%=      5-min Rain = 0
KVA1 250727Z 24008KT 20/08 A3007 RMK A01 T01970084  RH  048%=      5-min Rain = 0
KVA1 250728Z 24008KT 20/08 A3007 RMK A01 T01970084  RH  048%=      5-min Rain = 0
KVA1 250729Z 24007KT 20/08 A3007 RMK A01 T01980084  RH  048%=      5-min Rain = 0
KVA1 250730Z 24007KT 20/08 A3007 RMK A01 T01980084  RH  048%=      5-min Rain = 0
KVA1 250731Z 25007KT 20/09 A3006 RMK A01 T01980085  RH  048%=      5-min Rain = 0
KVA1 250732Z 25007KT 20/09 A3006 RMK A01 T01980085  RH  048%=      5-min Rain = 0
KVA1 250733Z 25005KT 20/08 A3006 RMK A01 T01980084  RH  048%=      5-min Rain = 0
KVA1 250734Z 25006KT 20/08 A3006 RMK A01 T01970084  RH  048%=      5-min Rain = 0
KVA1 250735Z 26006KT 20/08 A3006 RMK A01 T01960084  RH  048%=      5-min Rain = 0
KVA1 250736Z 26005KT 20/08 A3006 RMK A01 T01970084  RH  048%=      5-min Rain = 0
KVA1 250737Z 25007KT 20/08 A3006 RMK A01 T01960084  RH  048%=      5-min Rain = 0
KVA1 250738Z 25007KT 20/09 A3006 RMK A01 T01960085  RH  049%=      5-min Rain = 0
KVA1 250739Z 25006KT 20/09 A3006 RMK A01 T01960085  RH  049%=      5-min Rain = 0
KVA1 250740Z 24006KT 20/09 A3006 RMK A01 T01960085  RH  049%=      5-min Rain = 0
KVA1 250741Z 25006KT 20/09 A3006 RMK A01 T01960085  RH  049%=      5-min Rain = 0
KVA1 250742Z 25007KT 20/09 A3006 RMK A01 T01960085  RH  049%=      5-min Rain = 0
KVA1 250743Z 24007KT 20/09 A3006 RMK A01 T01970085  RH  049%=      5-min Rain = 0
KVA1 250744Z 24007KT 20/09 A3006 RMK A01 T01970085  RH  048%=      5-min Rain = 0
KVA1 250745Z 24006KT 20/09 A3006 RMK A01 T01970085  RH  048%=      5-min Rain = 0
KVA1 250746Z 25007KT 20/09 A3006 RMK A01 T01970086  RH  049%=      5-min Rain = 0
KVA1 250747Z 24006KT 20/09 A3006 RMK A01 T01970086  RH  049%=      5-min Rain = 0
KVA1 250748Z 25007KT 20/09 A3006 RMK A01 T01970086  RH  049%=      5-min Rain = 0
KVA1 250749Z 24006KT 20/09 A3006 RMK A01 T01970086  RH  049%=      5-min Rain = 0
KVA1 250750Z 24007KT 20/09 A3006 RMK A01 T01970086  RH  049%=      5-min Rain = 0
KVA1 250751Z 25006KT 20/09 A3006 RMK A01 T01970086  RH  049%=      5-min Rain = 0
KVA1 250752Z 25006KT 20/09 A3006 RMK A01 T01970086  RH  049%=      5-min Rain = 0
KVA1 250753Z 25006KT 20/09 A3006 RMK A01 T01970086  RH  049%=      5-min Rain = 0
KVA1 250754Z 25005KT 20/09 A3006 RMK A01 T01960086  RH  049%=      5-min Rain = 0
KVA1 250755Z 24005KT 20/09 A3006 RMK A01 T01960086  RH  049%=      5-min Rain = 0
KVA1 250756Z 24006KT 20/09 A3006 RMK A01 T01960086  RH  049%=      5-min Rain = 0
KVA1 250757Z 24005KT 20/09 A3006 RMK A01 T01970086  RH  049%=      5-min Rain = 0
KVA1 250758Z 23005KT 20/09 A3006 RMK A01 T01970086  RH  049%=      5-min Rain = 0
KVA1 250759Z 23005KT 20/09 A3006 RMK A01 T01970086  RH  049%=      5-min Rain = 0
KVA1 250800Z 23006KT 20/09 A3006 RMK A01 T01970086  RH  049%=      5-min Rain = 0
KVA1 250801Z 24006KT 20/09 A3006 RMK A01 T01970086  RH  049%=      5-min Rain = 0
KVA1 250802Z 23006KT 20/09 A3006 RMK A01 T01970086  RH  049%=      5-min Rain = 0
KVA1 250803Z 23005KT 20/09 A3006 RMK A01 T01970086  RH  049%=      5-min Rain = 0
KVA1 250804Z 24006KT 20/09 A3006 RMK A01 T01960086  RH  049%=      5-min Rain = 0
KVA1 250805Z 23005KT 20/09 A3006 RMK A01 T01960086  RH  049%=      5-min Rain = 0
KVA1 250806Z 24005KT 20/09 A3006 RMK A01 T01960086  RH  049%=      5-min Rain = 0
KVA1 250807Z 24006KT 20/09 A3006 RMK A01 T01960086  RH  049%=      5-min Rain = 0
KVA1 250808Z 23006KT 20/09 A3006 RMK A01 T01960086  RH  049%=      5-min Rain = 0
KVA1 250809Z 23006KT 20/09 A3006 RMK A01 T01950086  RH  049%=      5-min Rain = 0
KVA1 250810Z 23006KT 20/09 A3006 RMK A01 T01950086  RH  049%=      5-min Rain = 0
KVA1 250811Z 23007KT 19/09 A3006 RMK A01 T01940086  RH  049%=      5-min Rain = 0
KVA1 250812Z 23007KT 20/09 A3006 RMK A01 T01950086  RH  049%=      5-min Rain = 0
KVA1 250813Z 23007KT 20/09 A3006 RMK A01 T01950086  RH  050%=      5-min Rain = 0
KVA1 250814Z 23007KT 20/09 A3006 RMK A01 T01950086  RH  049%=      5-min Rain = 0
KVA1 250815Z 24006KT 19/09 A3006 RMK A01 T01940086  RH  050%=      5-min Rain = 0
KVA1 250816Z 24006KT 19/09 A3006 RMK A01 T01940086  RH  050%=      5-min Rain = 0
KVA1 250817Z 23006KT 19/09 A3006 RMK A01 T01940086  RH  050%=      5-min Rain = 0
KVA1 250818Z 23006KT 19/09 A3006 RMK A01 T01940086  RH  050%=      5-min Rain = 0
KVA1 250819Z 23006KT 19/09 A3006 RMK A01 T01930086  RH  050%=      5-min Rain = 0
KVA1 250820Z 23005KT 19/09 A3006 RMK A01 T01930086  RH  050%=      5-min Rain = 0
KVA1 250821Z 23006KT 19/09 A3006 RMK A01 T01930087  RH  050%=      5-min Rain = 0
KVA1 250822Z 22005KT 19/09 A3006 RMK A01 T01930087  RH  050%=      5-min Rain = 0
KVA1 250823Z 23005KT 19/09 A3006 RMK A01 T01920087  RH  050%=      5-min Rain = 0
KVA1 250824Z 22004KT 19/09 A3006 RMK A01 T01920087  RH  050%=      5-min Rain = 0
KVA1 250825Z 22005KT 19/09 A3006 RMK A01 T01910087  RH  051%=      5-min Rain = 0
KVA1 250826Z 22005KT 19/09 A3006 RMK A01 T01910087  RH  051%=      5-min Rain = 0
KVA1 250827Z 22005KT 19/09 A3006 RMK A01 T01910087  RH  051%=      5-min Rain = 0
KVA1 250828Z 22005KT 19/09 A3006 RMK A01 T01900087  RH  051%=      5-min Rain = 0
KVA1 250829Z 23005KT 19/09 A3006 RMK A01 T01910088  RH  051%=      5-min Rain = 0
KVA1 250830Z 22004KT 19/09 A3006 RMK A01 T01900087  RH  051%=      5-min Rain = 0
KVA1 250831Z 22005KT 19/09 A3006 RMK A01 T01890087  RH  051%=      5-min Rain = 0
KVA1 250832Z 22005KT 19/09 A3006 RMK A01 T01890088  RH  052%=      5-min Rain = 0
KVA1 250833Z 21005KT 19/09 A3006 RMK A01 T01880088  RH  052%=      5-min Rain = 0
KVA1 250834Z 21007KT 19/09 A3006 RMK A01 T01880089  RH  052%=      5-min Rain = 0
KVA1 250835Z 21006KT 19/09 A3006 RMK A01 T01880089  RH  052%=      5-min Rain = 0
KVA1 250836Z 22005KT 19/09 A3006 RMK A01 T01880089  RH  053%=      5-min Rain = 0
KVA1 250837Z 21006KT 19/09 A3006 RMK A01 T01870089  RH  053%=      5-min Rain = 0
KVA1 250838Z 22007KT 19/09 A3006 RMK A01 T01870089  RH  053%=      5-min Rain = 0
KVA1 250839Z 22008KT 19/09 A3006 RMK A01 T01860090  RH  053%=      5-min Rain = 0
KVA1 250840Z 22008KT 19/09 A3006 RMK A01 T01860090  RH  053%=      5-min Rain = 0
KVA1 250841Z 21008KT 19/09 A3006 RMK A01 T01860090  RH  053%=      5-min Rain = 0
KVA1 250842Z 21008KT 19/09 A3006 RMK A01 T01860090  RH  054%=      5-min Rain = 0
KVA1 250843Z 22008KT 19/09 A3006 RMK A01 T01860090  RH  054%=      5-min Rain = 0
KVA1 250844Z 21008KT 19/09 A3006 RMK A01 T01850090  RH  054%=      5-min Rain = 0
KVA1 250845Z 21006KT 19/09 A3006 RMK A01 T01850090  RH  054%=      5-min Rain = 0
KVA1 250846Z 21007KT 19/09 A3006 RMK A01 T01850090  RH  054%=      5-min Rain = 0
KVA1 250847Z 20007KT 19/09 A3006 RMK A01 T01850090  RH  054%=      5-min Rain = 0
KVA1 250848Z 20007KT 19/09 A3006 RMK A01 T01850091  RH  054%=      5-min Rain = 0
KVA1 250849Z 20007KT 19/09 A3006 RMK A01 T01850091  RH  054%=      5-min Rain = 0
KVA1 250850Z 20006KT 19/09 A3006 RMK A01 T01850091  RH  054%=      5-min Rain = 0
KVA1 250851Z 20008KT 18/09 A3006 RMK A01 T01840091  RH  054%=      5-min Rain = 0
KVA1 250852Z 21008KT 18/09 A3006 RMK A01 T01840091  RH  055%=      5-min Rain = 0
KVA1 250853Z 21010KT 18/09 A3006 RMK A01 T01840092  RH  055%=      5-min Rain = 0
KVA1 250854Z 21008KT 18/09 A3006 RMK A01 T01840092  RH  055%=      5-min Rain = 0
KVA1 250855Z 21007KT 18/09 A3006 RMK A01 T01840092  RH  055%=      5-min Rain = 0
KVA1 250856Z 20007KT 18/09 A3006 RMK A01 T01840092  RH  055%=      5-min Rain = 0
KVA1 250857Z 20006KT 18/09 A3006 RMK A01 T01840092  RH  055%=      5-min Rain = 0
KVA1 250858Z 20006KT 18/09 A3006 RMK A01 T01840092  RH  055%=      5-min Rain = 0
KVA1 250859Z 19005KT 18/09 A3006 RMK A01 T01840092  RH  055%=      5-min Rain = 0
KVA1 250900Z 18006KT 18/09 A3006 RMK A01 T01840092  RH  055%=      5-min Rain = 0
KVA1 250901Z 18007KT 18/09 A3006 RMK A01 T01840092  RH  055%=      5-min Rain = 0
KVA1 250902Z 18007KT 18/09 A3006 RMK A01 T01840093  RH  055%=      5-min Rain = 0
KVA1 250903Z 18006KT 19/09 A3006 RMK A01 T01850093  RH  055%=      5-min Rain = 0
KVA1 250904Z 19008KT 19/09 A3006 RMK A01 T01850093  RH  055%=      5-min Rain = 0
KVA1 250905Z 18006KT 19/09 A3006 RMK A01 T01850093  RH  055%=      5-min Rain = 0
KVA1 250906Z 19006KT 19/09 A3006 RMK A01 T01850093  RH  055%=      5-min Rain = 0
KVA1 250907Z 19005KT 19/09 A3006 RMK A01 T01850093  RH  055%=      5-min Rain = 0
KVA1 250908Z 20006KT 19/09 A3006 RMK A01 T01850094  RH  055%=      5-min Rain = 0
KVA1 250909Z 20006KT 18/09 A3006 RMK A01 T01840093  RH  055%=      5-min Rain = 0
KVA1 250910Z 20006KT 18/09 A3006 RMK A01 T01840093  RH  056%=      5-min Rain = 0
KVA1 250911Z 20005KT 18/09 A3006 RMK A01 T01830093  RH  056%=      5-min Rain = 0
KVA1 250912Z 20006KT 18/09 A3006 RMK A01 T01830093  RH  056%=      5-min Rain = 0
KVA1 250913Z 20004KT 18/09 A3006 RMK A01 T01830094  RH  056%=      5-min Rain = 0
KVA1 250914Z 20005KT 18/09 A3006 RMK A01 T01830093  RH  056%=      5-min Rain = 0
KVA1 250915Z 20005KT 18/09 A3006 RMK A01 T01820093  RH  056%=      5-min Rain = 0
KVA1 250916Z 20005KT 18/09 A3006 RMK A01 T01820094  RH  056%=      5-min Rain = 0
KVA1 250917Z 20005KT 18/09 A3006 RMK A01 T01820093  RH  056%=      5-min Rain = 0
KVA1 250918Z 20004KT 18/09 A3006 RMK A01 T01820093  RH  056%=      5-min Rain = 0
KVA1 250919Z 20004KT 18/09 A3006 RMK A01 T01820093  RH  056%=      5-min Rain = 0
KVA1 250920Z 19004KT 18/09 A3006 RMK A01 T01820093  RH  056%=      5-min Rain = 0
KVA1 250921Z 19004KT 18/09 A3006 RMK A01 T01810093  RH  056%=      5-min Rain = 0
KVA1 250922Z 21003KT 18/09 A3006 RMK A01 T01810093  RH  056%=      5-min Rain = 0
KVA1 250923Z 21004KT 18/09 A3006 RMK A01 T01810093  RH  056%=      5-min Rain = 0
KVA1 250924Z 22004KT 18/09 A3006 RMK A01 T01810093  RH  056%=      5-min Rain = 0
KVA1 250925Z 22005KT 18/09 A3006 RMK A01 T01800093  RH  056%=      5-min Rain = 0
KVA1 250926Z 22005KT 18/09 A3006 RMK A01 T01800093  RH  057%=      5-min Rain = 0
KVA1 250927Z 21005KT 18/09 A3006 RMK A01 T01800093  RH  057%=      5-min Rain = 0
KVA1 250928Z 21005KT 18/09 A3006 RMK A01 T01800093  RH  057%=      5-min Rain = 0
KVA1 250929Z 20006KT 18/09 A3006 RMK A01 T01800093  RH  057%=      5-min Rain = 0
KVA1 250930Z 20008KT 18/09 A3006 RMK A01 T01810093  RH  057%=      5-min Rain = 0
KVA1 250931Z 21008KT 18/09 A3006 RMK A01 T01820093  RH  056%=      5-min Rain = 0
KVA1 250932Z 20008KT 18/09 A3006 RMK A01 T01820093  RH  056%=      5-min Rain = 0
KVA1 250933Z 21007KT 18/09 A3006 RMK A01 T01830094  RH  056%=      5-min Rain = 0
KVA1 250934Z 20007KT 18/09 A3006 RMK A01 T01840094  RH  056%=      5-min Rain = 0
KVA1 250935Z 21007KT 18/09 A3006 RMK A01 T01840093  RH  056%=      5-min Rain = 0
KVA1 250936Z 21007KT 18/09 A3006 RMK A01 T01840093  RH  056%=      5-min Rain = 0
KVA1 250937Z 21007KT 18/09 A3006 RMK A01 T01840094  RH  056%=      5-min Rain = 0
KVA1 250938Z 21007KT 18/09 A3006 RMK A01 T01840094  RH  056%=      5-min Rain = 0
KVA1 250939Z 21007KT 18/09 A3006 RMK A01 T01840094  RH  056%=      5-min Rain = 0
KVA1 250940Z 22006KT 18/09 A3006 RMK A01 T01830094  RH  056%=      5-min Rain = 0
KVA1 250941Z 22006KT 18/09 A3006 RMK A01 T01830094  RH  056%=      5-min Rain = 0
KVA1 250942Z 22006KT 18/09 A3006 RMK A01 T01820094  RH  056%=      5-min Rain = 0
KVA1 250943Z 22006KT 18/09 A3006 RMK A01 T01820094  RH  056%=      5-min Rain = 0
KVA1 250944Z 22005KT 18/09 A3006 RMK A01 T01810093  RH  057%=      5-min Rain = 0
KVA1 250945Z 22007KT 18/09 A3006 RMK A01 T01800093  RH  057%=      5-min Rain = 0
KVA1 250946Z 22006KT 18/09 A3006 RMK A01 T01800093  RH  057%=      5-min Rain = 0
KVA1 250947Z 21006KT 18/09 A3006 RMK A01 T01790093  RH  057%=      5-min Rain = 0
KVA1 250948Z 21007KT 18/09 A3006 RMK A01 T01790093  RH  057%=      5-min Rain = 0
KVA1 250949Z 22006KT 18/09 A3006 RMK A01 T01780093  RH  057%=      5-min Rain = 0
KVA1 250950Z 22007KT 18/09 A3006 RMK A01 T01780093  RH  058%=      5-min Rain = 0
KVA1 250951Z 22007KT 18/09 A3006 RMK A01 T01780093  RH  058%=      5-min Rain = 0
KVA1 250952Z 22006KT 18/09 A3006 RMK A01 T01770093  RH  058%=      5-min Rain = 0
KVA1 250953Z 22006KT 18/09 A3006 RMK A01 T01770093  RH  058%=      5-min Rain = 0
KVA1 250954Z 22005KT 18/09 A3006 RMK A01 T01770093  RH  058%=      5-min Rain = 0
KVA1 250955Z 21005KT 18/09 A3006 RMK A01 T01760093  RH  058%=      5-min Rain = 0
KVA1 250956Z 21005KT 18/09 A3006 RMK A01 T01760093  RH  058%=      5-min Rain = 0
KVA1 250957Z 21005KT 18/09 A3006 RMK A01 T01760093  RH  058%=      5-min Rain = 0
KVA1 250958Z 21006KT 18/09 A3006 RMK A01 T01750093  RH  058%=      5-min Rain = 0
KVA1 250959Z 21005KT 18/09 A3006 RMK A01 T01750093  RH  059%=      5-min Rain = 0
KVA1 251000Z 21006KT 18/09 A3006 RMK A01 T01750093  RH  059%=      5-min Rain = 0
KVA1 251001Z 21006KT 18/09 A3006 RMK A01 T01750094  RH  059%=      5-min Rain = 0
KVA1 251002Z 21005KT 18/09 A3006 RMK A01 T01750094  RH  059%=      5-min Rain = 0
KVA1 251003Z 22006KT 18/09 A3006 RMK A01 T01750093  RH  059%=      5-min Rain = 0
KVA1 251004Z 21005KT 18/09 A3006 RMK A01 T01750094  RH  059%=      5-min Rain = 0
KVA1 251005Z 21006KT 18/09 A3006 RMK A01 T01750094  RH  059%=      5-min Rain = 0
KVA1 251006Z 21006KT 17/09 A3006 RMK A01 T01740093  RH  059%=      5-min Rain = 0
KVA1 251007Z 21005KT 18/09 A3006 RMK A01 T01750094  RH  059%=      5-min Rain = 0
KVA1 251008Z 21006KT 17/09 A3006 RMK A01 T01740094  RH  059%=      5-min Rain = 0
KVA1 251009Z 21006KT 17/09 A3006 RMK A01 T01740094  RH  059%=      5-min Rain = 0
KVA1 251010Z 21006KT 18/09 A3006 RMK A01 T01750094  RH  059%=      5-min Rain = 0
KVA1 251011Z 21006KT 18/09 A3006 RMK A01 T01750094  RH  059%=      5-min Rain = 0
KVA1 251012Z 21006KT 18/09 A3006 RMK A01 T01750094  RH  059%=      5-min Rain = 0
KVA1 251013Z 20006KT 18/09 A3006 RMK A01 T01750094  RH  059%=      5-min Rain = 0
KVA1 251014Z 20006KT 18/09 A3006 RMK A01 T01750094  RH  059%=      5-min Rain = 0
KVA1 251015Z 20006KT 18/09 A3006 RMK A01 T01750094  RH  059%=      5-min Rain = 0
KVA1 251016Z 20005KT 18/09 A3006 RMK A01 T01750094  RH  059%=      5-min Rain = 0
KVA1 251017Z 20005KT 18/09 A3006 RMK A01 T01750094  RH  059%=      5-min Rain = 0
KVA1 251018Z 20005KT 18/09 A3007 RMK A01 T01750094  RH  059%=      5-min Rain = 0
KVA1 251019Z 21005KT 18/09 A3007 RMK A01 T01750094  RH  059%=      5-min Rain = 0
KVA1 251020Z 21005KT 18/10 A3007 RMK A01 T01760095  RH  059%=      5-min Rain = 0
KVA1 251021Z 21005KT 18/09 A3007 RMK A01 T01750094  RH  059%=      5-min Rain = 0
KVA1 251022Z 21005KT 17/09 A3007 RMK A01 T01740094  RH  059%=      5-min Rain = 0
KVA1 251023Z 21006KT 17/09 A3007 RMK A01 T01740094  RH  059%=      5-min Rain = 0
KVA1 251024Z 21005KT 17/09 A3007 RMK A01 T01740094  RH  059%=      5-min Rain = 0
KVA1 251025Z 22005KT 17/09 A3007 RMK A01 T01740094  RH  059%=      5-min Rain = 0
KVA1 251026Z 22005KT 17/09 A3007 RMK A01 T01740094  RH  059%=      5-min Rain = 0
KVA1 251027Z 22005KT 17/09 A3007 RMK A01 T01740094  RH  060%=      5-min Rain = 0
KVA1 251028Z 21005KT 17/09 A3007 RMK A01 T01730094  RH  060%=      5-min Rain = 0
KVA1 251029Z 22005KT 17/09 A3007 RMK A01 T01730094  RH  060%=      5-min Rain = 0
KVA1 251030Z 22004KT 17/09 A3007 RMK A01 T01730094  RH  060%=      5-min Rain = 0
KVA1 251031Z 22004KT 17/09 A3007 RMK A01 T01730094  RH  060%=      5-min Rain = 0
KVA1 251032Z 21004KT 17/09 A3007 RMK A01 T01720094  RH  060%=      5-min Rain = 0
KVA1 251033Z 22004KT 17/09 A3007 RMK A01 T01720094  RH  060%=      5-min Rain = 0
KVA1 251034Z 21004KT 17/09 A3007 RMK A01 T01710094  RH  060%=      5-min Rain = 0
KVA1 251035Z 20005KT 17/09 A3007 RMK A01 T01710094  RH  060%=      5-min Rain = 0
KVA1 251036Z 20004KT 17/09 A3007 RMK A01 T01710094  RH  061%=      5-min Rain = 0
KVA1 251037Z 21005KT 17/10 A3007 RMK A01 T01710095  RH  061%=      5-min Rain = 0
KVA1 251038Z 21004KT 17/10 A3007 RMK A01 T01720095  RH  061%=      5-min Rain = 0
KVA1 251039Z 20005KT 17/10 A3007 RMK A01 T01710095  RH  061%=      5-min Rain = 0
KVA1 251040Z 21005KT 17/10 A3007 RMK A01 T01710095  RH  061%=      5-min Rain = 0
KVA1 251041Z 21005KT 17/10 A3007 RMK A01 T01710095  RH  061%=      5-min Rain = 0
KVA1 251042Z 21005KT 17/10 A3007 RMK A01 T01720095  RH  061%=      5-min Rain = 0
KVA1 251043Z 21005KT 17/10 A3007 RMK A01 T01720096  RH  061%=      5-min Rain = 0
KVA1 251044Z 21005KT 17/10 A3007 RMK A01 T01720096  RH  061%=      5-min Rain = 0
KVA1 251045Z 22006KT 17/10 A3007 RMK A01 T01720096  RH  061%=      5-min Rain = 0
KVA1 251046Z 21006KT 17/10 A3007 RMK A01 T01720096  RH  061%=      5-min Rain = 0
KVA1 251047Z 22007KT 17/10 A3007 RMK A01 T01720096  RH  061%=      5-min Rain = 0
KVA1 251048Z 22007KT 17/10 A3007 RMK A01 T01720096  RH  061%=      5-min Rain = 0
KVA1 251049Z 22006KT 17/10 A3007 RMK A01 T01720096  RH  061%=      5-min Rain = 0
KVA1 251050Z 22007KT 17/10 A3007 RMK A01 T01720096  RH  061%=      5-min Rain = 0
KVA1 251051Z 23007KT 17/10 A3007 RMK A01 T01720096  RH  061%=      5-min Rain = 0
KVA1 251052Z 23007KT 17/10 A3007 RMK A01 T01720096  RH  061%=      5-min Rain = 0
KVA1 251053Z 23007KT 17/10 A3007 RMK A01 T01720096  RH  061%=      5-min Rain = 0
KVA1 251054Z 23008KT 17/10 A3007 RMK A01 T01720096  RH  061%=      5-min Rain = 0
KVA1 251055Z 23008KT 17/10 A3007 RMK A01 T01720096  RH  061%=      5-min Rain = 0
KVA1 251056Z 22009KT 17/10 A3007 RMK A01 T01720096  RH  061%=      5-min Rain = 0
KVA1 251057Z 22009KT 17/10 A3007 RMK A01 T01720096  RH  061%=      5-min Rain = 0
KVA1 251058Z 22009KT 17/10 A3007 RMK A01 T01720096  RH  061%=      5-min Rain = 0
KVA1 251059Z 22010KT 17/10 A3007 RMK A01 T01720097  RH  061%=      5-min Rain = 0
KVA1 251100Z 22009KT 17/10 A3007 RMK A01 T01730097  RH  061%=      5-min Rain = 0
KVA1 251101Z 21009KT 17/10 A3007 RMK A01 T01730097  RH  061%=      5-min Rain = 0
KVA1 251102Z 21009KT 17/10 A3007 RMK A01 T01730097  RH  061%=      5-min Rain = 0
KVA1 251103Z 21008KT 17/10 A3007 RMK A01 T01730097  RH  061%=      5-min Rain = 0
KVA1 251104Z 21008KT 17/10 A3007 RMK A01 T01730097  RH  061%=      5-min Rain = 0
KVA1 251105Z 21009KT 17/10 A3007 RMK A01 T01720097  RH  061%=      5-min Rain = 0
KVA1 251106Z 21008KT 17/10 A3007 RMK A01 T01720097  RH  061%=      5-min Rain = 0
KVA1 251107Z 21007KT 17/10 A3008 RMK A01 T01720097  RH  061%=      5-min Rain = 0
KVA1 251108Z 21008KT 17/10 A3008 RMK A01 T01720097  RH  061%=      5-min Rain = 0
KVA1 251109Z 21008KT 17/10 A3008 RMK A01 T01720097  RH  061%=      5-min Rain = 0
KVA1 251110Z 21007KT 17/10 A3008 RMK A01 T01710096  RH  061%=      5-min Rain = 0
KVA1 251111Z 22007KT 17/10 A3008 RMK A01 T01720097  RH  061%=      5-min Rain = 0
KVA1 251112Z 22006KT 17/10 A3008 RMK A01 T01710097  RH  061%=      5-min Rain = 0
KVA1 251113Z 22007KT 17/10 A3008 RMK A01 T01710097  RH  062%=      5-min Rain = 0
KVA1 251114Z 22007KT 17/10 A3008 RMK A01 T01710097  RH  062%=      5-min Rain = 0
KVA1 251115Z 22007KT 17/10 A3008 RMK A01 T01710097  RH  062%=      5-min Rain = 0
KVA1 251116Z 22007KT 17/10 A3008 RMK A01 T01700097  RH  062%=      5-min Rain = 0
KVA1 251117Z 22007KT 17/10 A3008 RMK A01 T01700096  RH  062%=      5-min Rain = 0
KVA1 251118Z 21006KT 17/10 A3008 RMK A01 T01700097  RH  062%=      5-min Rain = 0
KVA1 251119Z 21007KT 17/10 A3008 RMK A01 T01700097  RH  062%=      5-min Rain = 0
KVA1 251120Z 22006KT 17/10 A3008 RMK A01 T01700097  RH  062%=      5-min Rain = 0
KVA1 251121Z 21006KT 17/10 A3008 RMK A01 T01700097  RH  062%=      5-min Rain = 0
KVA1 251122Z 21006KT 17/10 A3008 RMK A01 T01700097  RH  062%=      5-min Rain = 0
KVA1 251123Z 22006KT 17/10 A3008 RMK A01 T01690097  RH  062%=      5-min Rain = 0
KVA1 251124Z 21006KT 17/10 A3008 RMK A01 T01690097  RH  062%=      5-min Rain = 0
KVA1 251125Z 22006KT 17/10 A3008 RMK A01 T01690097  RH  063%=      5-min Rain = 0
KVA1 251126Z 21006KT 17/10 A3008 RMK A01 T01690097  RH  062%=      5-min Rain = 0
KVA1 251127Z 21007KT 17/10 A3008 RMK A01 T01690097  RH  063%=      5-min Rain = 0
KVA1 251128Z 21007KT 17/10 A3008 RMK A01 T01690097  RH  063%=      5-min Rain = 0
KVA1 251129Z 22007KT 17/10 A3008 RMK A01 T01680097  RH  063%=      5-min Rain = 0
KVA1 251130Z 22007KT 17/10 A3008 RMK A01 T01680097  RH  063%=      5-min Rain = 0
KVA1 251131Z 22007KT 17/10 A3008 RMK A01 T01680097  RH  063%=      5-min Rain = 0
KVA1 251132Z 22007KT 17/10 A3008 RMK A01 T01680097  RH  063%=      5-min Rain = 0
KVA1 251133Z 23007KT 17/10 A3008 RMK A01 T01670097  RH  063%=      5-min Rain = 0
KVA1 251134Z 23008KT 17/10 A3008 RMK A01 T01680098  RH  063%=      5-min Rain = 0
KVA1 251135Z 22009KT 17/10 A3008 RMK A01 T01670097  RH  063%=      5-min Rain = 0
KVA1 251136Z 22008KT 17/10 A3008 RMK A01 T01670097  RH  063%=      5-min Rain = 0
KVA1 251137Z 22008KT 17/10 A3008 RMK A01 T01670097  RH  063%=      5-min Rain = 0
KVA1 251138Z 23008KT 17/10 A3008 RMK A01 T01680097  RH  063%=      5-min Rain = 0
KVA1 251139Z 22008KT 17/10 A3008 RMK A01 T01680097  RH  063%=      5-min Rain = 0
KVA1 251140Z 23007KT 17/10 A3008 RMK A01 T01670097  RH  063%=      5-min Rain = 0
KVA1 251141Z 23007KT 17/10 A3008 RMK A01 T01670097  RH  063%=      5-min Rain = 0
KVA1 251142Z 22007KT 17/10 A3008 RMK A01 T01670097  RH  063%=      5-min Rain = 0
KVA1 251143Z 23007KT 17/10 A3008 RMK A01 T01670097  RH  064%=      5-min Rain = 0
KVA1 251144Z 23006KT 17/10 A3008 RMK A01 T01660097  RH  064%=      5-min Rain = 0
KVA1 251145Z 23005KT 17/10 A3008 RMK A01 T01660097  RH  064%=      5-min Rain = 0
KVA1 251146Z 23006KT 17/10 A3008 RMK A01 T01660097  RH  064%=      5-min Rain = 0
KVA1 251147Z 23007KT 17/10 A3008 RMK A01 T01660098  RH  064%=      5-min Rain = 0
KVA1 251148Z 23007KT 17/10 A3008 RMK A01 T01660098  RH  064%=      5-min Rain = 0
KVA1 251149Z 24006KT 17/10 A3008 RMK A01 T01660097  RH  064%=      5-min Rain = 0
KVA1 251150Z 24007KT 17/10 A3008 RMK A01 T01660097  RH  064%=      5-min Rain = 0
KVA1 251151Z 24006KT 17/10 A3008 RMK A01 T01660097  RH  064%=      5-min Rain = 0
KVA1 251152Z 24006KT 17/10 A3008 RMK A01 T01660098  RH  064%=      5-min Rain = 0
KVA1 251153Z 24007KT 17/10 A3008 RMK A01 T01660097  RH  064%=      5-min Rain = 0
KVA1 251154Z 24006KT 17/10 A3008 RMK A01 T01650097  RH  064%=      5-min Rain = 0
KVA1 251155Z 24007KT 17/10 A3008 RMK A01 T01660098  RH  064%=      5-min Rain = 0
KVA1 251156Z 24006KT 17/10 A3008 RMK A01 T01660098  RH  064%=      5-min Rain = 0
KVA1 251157Z 24006KT 17/10 A3008 RMK A01 T01660098  RH  064%=      5-min Rain = 0
KVA1 251158Z 24006KT 17/10 A3008 RMK A01 T01660098  RH  064%=      5-min Rain = 0
KVA1 251159Z 23007KT 17/10 A3008 RMK A01 T01660098  RH  064%=      5-min Rain = 0
KVA1 251200Z 23007KT 17/10 A3008 RMK A01 T01670098  RH  064%=      5-min Rain = 0
KVA1 251201Z 23007KT 17/10 A3008 RMK A01 T01670098  RH  064%=      5-min Rain = 0
KVA1 251202Z 23008KT 17/10 A3008 RMK A01 T01670098  RH  064%=      5-min Rain = 0
KVA1 251203Z 23008KT 17/10 A3008 RMK A01 T01660098  RH  064%=      5-min Rain = 0
KVA1 251204Z 23008KT 17/10 A3008 RMK A01 T01670098  RH  064%=      5-min Rain = 0
KVA1 251205Z 22008KT 17/10 A3008 RMK A01 T01670099  RH  064%=      5-min Rain = 0
KVA1 251206Z 23008KT 17/10 A3008 RMK A01 T01670099  RH  064%=      5-min Rain = 0
KVA1 251207Z 23007KT 17/10 A3008 RMK A01 T01670099  RH  064%=      5-min Rain = 0
KVA1 251208Z 23007KT 17/10 A3008 RMK A01 T01660098  RH  064%=      5-min Rain = 0
KVA1 251209Z 23007KT 17/10 A3008 RMK A01 T01660098  RH  064%=      5-min Rain = 0
KVA1 251210Z 23007KT 17/10 A3009 RMK A01 T01660098  RH  064%=      5-min Rain = 0
KVA1 251211Z 23008KT 17/10 A3009 RMK A01 T01650098  RH  064%=      5-min Rain = 0
KVA1 251212Z 22007KT 17/10 A3008 RMK A01 T01650098  RH  065%=      5-min Rain = 0
KVA1 251213Z 23008KT 17/10 A3008 RMK A01 T01650098  RH  065%=      5-min Rain = 0
KVA1 251214Z 22007KT 17/10 A3008 RMK A01 T01650098  RH  065%=      5-min Rain = 0
KVA1 251215Z 22008KT 17/10 A3008 RMK A01 T01650099  RH  065%=      5-min Rain = 0
KVA1 251216Z 22008KT 17/10 A3008 RMK A01 T01650099  RH  065%=      5-min Rain = 0
KVA1 251217Z 22008KT 17/10 A3008 RMK A01 T01650098  RH  065%=      5-min Rain = 0
KVA1 251218Z 22008KT 17/10 A3008 RMK A01 T01650098  RH  065%=      5-min Rain = 0
KVA1 251219Z 22007KT 17/10 A3008 RMK A01 T01650098  RH  065%=      5-min Rain = 0
KVA1 251220Z 22008KT 17/10 A3008 RMK A01 T01660099  RH  065%=      5-min Rain = 0
KVA1 251221Z 22008KT 17/10 A3008 RMK A01 T01660099  RH  064%=      5-min Rain = 0
KVA1 251222Z 22008KT 17/10 A3008 RMK A01 T01660099  RH  064%=      5-min Rain = 0
KVA1 251223Z 22009KT 17/10 A3008 RMK A01 T01660099  RH  064%=      5-min Rain = 0
KVA1 251224Z 22008KT 17/10 A3009 RMK A01 T01660099  RH  064%=      5-min Rain = 0
KVA1 251225Z 22008KT 17/10 A3009 RMK A01 T01670099  RH  064%=      5-min Rain = 0
KVA1 251226Z 23009KT 17/10 A3009 RMK A01 T01670099  RH  064%=      5-min Rain = 0
KVA1 251227Z 22008KT 17/10 A3009 RMK A01 T01670099  RH  064%=      5-min Rain = 0
KVA1 251228Z 22007KT 17/10 A3009 RMK A01 T01670099  RH  064%=      5-min Rain = 0
KVA1 251229Z 22007KT 17/10 A3009 RMK A01 T01670099  RH  064%=      5-min Rain = 0
KVA1 251230Z 22007KT 17/10 A3009 RMK A01 T01670099  RH  064%=      5-min Rain = 0
KVA1 251231Z 22007KT 17/10 A3009 RMK A01 T01670099  RH  064%=      5-min Rain = 0
KVA1 251232Z 22008KT 17/10 A3009 RMK A01 T01670099  RH  064%=      5-min Rain = 0
KVA1 251233Z 23008KT 17/10 A3009 RMK A01 T01670099  RH  064%=      5-min Rain = 0
KVA1 251234Z 23008KT 17/10 A3009 RMK A01 T01670099  RH  064%=      5-min Rain = 0
KVA1 251235Z 23007KT 17/10 A3009 RMK A01 T01670098  RH  064%=      5-min Rain = 0
KVA1 251236Z 22006KT 17/10 A3009 RMK A01 T01660098  RH  064%=      5-min Rain = 0
KVA1 251237Z 22007KT 17/10 A3009 RMK A01 T01660098  RH  064%=      5-min Rain = 0
KVA1 251238Z 22008KT 17/10 A3009 RMK A01 T01660098  RH  064%=      5-min Rain = 0
KVA1 251239Z 23008KT 17/10 A3009 RMK A01 T01660099  RH  064%=      5-min Rain = 0
KVA1 251240Z 23007KT 17/10 A3009 RMK A01 T01660098  RH  064%=      5-min Rain = 0
KVA1 251241Z 24008KT 17/10 A3009 RMK A01 T01650098  RH  064%=      5-min Rain = 0
KVA1 251242Z 24008KT 17/10 A3009 RMK A01 T01650098  RH  065%=      5-min Rain = 0
KVA1 251243Z 24007KT 17/10 A3009 RMK A01 T01650098  RH  065%=      5-min Rain = 0
KVA1 251244Z 24007KT 16/10 A3009 RMK A01 T01640098  RH  065%=      5-min Rain = 0
KVA1 251245Z 24007KT 16/10 A3009 RMK A01 T01640098  RH  065%=      5-min Rain = 0
KVA1 251246Z 24007KT 16/10 A3009 RMK A01 T01640098  RH  065%=      5-min Rain = 0
KVA1 251247Z 24007KT 16/10 A3009 RMK A01 T01640098  RH  065%=      5-min Rain = 0
KVA1 251248Z 24007KT 16/10 A3009 RMK A01 T01640098  RH  065%=      5-min Rain = 0
KVA1 251249Z 24007KT 16/10 A3009 RMK A01 T01640098  RH  065%=      5-min Rain = 0
KVA1 251250Z 24007KT 16/10 A3009 RMK A01 T01630098  RH  065%=      5-min Rain = 0
KVA1 251251Z 24008KT 16/10 A3009 RMK A01 T01630098  RH  065%=      5-min Rain = 0
KVA1 251252Z 24008KT 16/10 A3009 RMK A01 T01630098  RH  065%=      5-min Rain = 0
KVA1 251253Z 24007KT 16/10 A3009 RMK A01 T01640098  RH  065%=      5-min Rain = 0
KVA1 251254Z 24007KT 17/10 A3009 RMK A01 T01650098  RH  065%=      5-min Rain = 0
KVA1 251255Z 24008KT 17/10 A3009 RMK A01 T01650098  RH  064%=      5-min Rain = 0
KVA1 251256Z 23007KT 17/10 A3009 RMK A01 T01660098  RH  064%=      5-min Rain = 0
KVA1 251257Z 23007KT 17/10 A3009 RMK A01 T01660098  RH  064%=      5-min Rain = 0
KVA1 251258Z 23008KT 17/10 A3009 RMK A01 T01660097  RH  064%=      5-min Rain = 0
KVA1 251259Z 23006KT 17/10 A3009 RMK A01 T01670097  RH  063%=      5-min Rain = 0
KVA1 251300Z 24007KT 17/10 A3009 RMK A01 T01670097  RH  063%=      5-min Rain = 0
KVA1 251301Z 24006KT 17/10 A3009 RMK A01 T01670097  RH  063%=      5-min Rain = 0
KVA1 251302Z 24006KT 17/10 A301 RMK A01 T01670097  RH  063%=      5-min Rain = 0
KVA1 251303Z 24006KT 17/10 A301 RMK A01 T01670097  RH  063%=      5-min Rain = 0
KVA1 251304Z 24006KT 17/10 A301 RMK A01 T01670097  RH  063%=      5-min Rain = 0
KVA1 251305Z 23005KT 17/10 A301 RMK A01 T01670097  RH  063%=      5-min Rain = 0
KVA1 251306Z 23006KT 17/10 A301 RMK A01 T01670097  RH  063%=      5-min Rain = 0
KVA1 251307Z 23005KT 17/10 A301 RMK A01 T01680097  RH  063%=      5-min Rain = 0
KVA1 251308Z 23005KT 17/10 A301 RMK A01 T01680097  RH  063%=      5-min Rain = 0
KVA1 251309Z 22005KT 17/10 A301 RMK A01 T01680097  RH  063%=      5-min Rain = 0
KVA1 251310Z 22006KT 17/10 A301 RMK A01 T01690097  RH  063%=      5-min Rain = 0
KVA1 251311Z 21006KT 17/10 A301 RMK A01 T01690097  RH  062%=      5-min Rain = 0
KVA1 251312Z 21006KT 17/10 A301 RMK A01 T01700097  RH  062%=      5-min Rain = 0
KVA1 251313Z 22006KT 17/10 A301 RMK A01 T01700097  RH  062%=      5-min Rain = 0
KVA1 251314Z 22007KT 17/10 A301 RMK A01 T01710097  RH  062%=      5-min Rain = 0
KVA1 251315Z 23006KT 17/10 A301 RMK A01 T01710097  RH  062%=      5-min Rain = 0
KVA1 251316Z 22007KT 17/10 A301 RMK A01 T01710097  RH  062%=      5-min Rain = 0
KVA1 251317Z 22007KT 17/10 A301 RMK A01 T01720097  RH  061%=      5-min Rain = 0
KVA1 251318Z 22007KT 17/10 A301 RMK A01 T01720097  RH  061%=      5-min Rain = 0
KVA1 251319Z 22006KT 17/10 A301 RMK A01 T01730097  RH  061%=      5-min Rain = 0
KVA1 251320Z 22006KT 17/10 A301 RMK A01 T01740097  RH  061%=      5-min Rain = 0
KVA1 251321Z 21006KT 17/10 A301 RMK A01 T01740097  RH  061%=      5-min Rain = 0
KVA1 251322Z 21006KT 17/10 A301 RMK A01 T01740097  RH  060%=      5-min Rain = 0
KVA1 251323Z 20005KT 18/10 A301 RMK A01 T01750097  RH  060%=      5-min Rain = 0
KVA1 251324Z 20005KT 18/10 A301 RMK A01 T01750097  RH  060%=      5-min Rain = 0
KVA1 251325Z 19004KT 18/10 A301 RMK A01 T01760097  RH  060%=      5-min Rain = 0
KVA1 251326Z 18004KT 18/10 A301 RMK A01 T01760097  RH  060%=      5-min Rain = 0
KVA1 251327Z 18004KT 18/10 A301 RMK A01 T01760097  RH  060%=      5-min Rain = 0
KVA1 251328Z 19005KT 18/10 A301 RMK A01 T01760097  RH  060%=      5-min Rain = 0
KVA1 251329Z 20005KT 18/10 A301 RMK A01 T01770097  RH  059%=      5-min Rain = 0
KVA1 251330Z 21004KT 18/10 A301 RMK A01 T01770097  RH  059%=      5-min Rain = 0
KVA1 251331Z 20005KT 18/10 A301 RMK A01 T01780098  RH  059%=      5-min Rain = 0
KVA1 251332Z 20006KT 18/10 A301 RMK A01 T01780097  RH  059%=      5-min Rain = 0
KVA1 251333Z 21006KT 18/10 A301 RMK A01 T01780097  RH  059%=      5-min Rain = 0
KVA1 251334Z 19005KT 18/10 A301 RMK A01 T01780097  RH  059%=      5-min Rain = 0
KVA1 251335Z 19005KT 18/10 A301 RMK A01 T01780097  RH  059%=      5-min Rain = 0
KVA1 251336Z 19006KT 18/10 A301 RMK A01 T01790097  RH  059%=      5-min Rain = 0
KVA1 251337Z 20004KT 18/10 A301 RMK A01 T01790097  RH  059%=      5-min Rain = 0
KVA1 251338Z 20005KT 18/10 A301 RMK A01 T01790097  RH  059%=      5-min Rain = 0
KVA1 251339Z 20004KT 18/10 A301 RMK A01 T01800097  RH  059%=      5-min Rain = 0
KVA1 251340Z 21004KT 18/10 A3011 RMK A01 T01800097  RH  059%=      5-min Rain = 0
KVA1 251341Z 21005KT 18/10 A3011 RMK A01 T01800098  RH  059%=      5-min Rain = 0
KVA1 251342Z 20004KT 18/10 A3011 RMK A01 T01810098  RH  058%=      5-min Rain = 0
KVA1 251343Z 20005KT 18/10 A3011 RMK A01 T01810097  RH  058%=      5-min Rain = 0
KVA1 251344Z 20004KT 18/10 A3011 RMK A01 T01820098  RH  058%=      5-min Rain = 0
KVA1 251345Z 20004KT 18/10 A3011 RMK A01 T01830098  RH  058%=      5-min Rain = 0
KVA1 251346Z 20004KT 18/10 A3011 RMK A01 T01830098  RH  058%=      5-min Rain = 0
KVA1 251347Z 20004KT 18/10 A3011 RMK A01 T01840099  RH  057%=      5-min Rain = 0
KVA1 251348Z 21005KT 19/10 A3011 RMK A01 T01850099  RH  057%=      5-min Rain = 0
KVA1 251349Z 21005KT 19/10 A301 RMK A01 T01850098  RH  057%=      5-min Rain = 0
KVA1 251350Z 21005KT 19/10 A301 RMK A01 T01860099  RH  057%=      5-min Rain = 0
KVA1 251351Z 21006KT 19/10 A301 RMK A01 T01860098  RH  057%=      5-min Rain = 0
KVA1 251352Z 20004KT 19/10 A301 RMK A01 T01860098  RH  057%=      5-min Rain = 0
KVA1 251353Z 21004KT 19/10 A301 RMK A01 T01870099  RH  056%=      5-min Rain = 0
KVA1 251354Z 21004KT 19/10 A3011 RMK A01 T01870099  RH  056%=      5-min Rain = 0
KVA1 251355Z 19004KT 19/10 A3011 RMK A01 T01880099  RH  056%=      5-min Rain = 0
KVA1 251356Z 20004KT 19/10 A3011 RMK A01 T01880098  RH  056%=      5-min Rain = 0
KVA1 251357Z 18003KT 19/10 A3011 RMK A01 T01880099  RH  056%=      5-min Rain = 0
KVA1 251358Z 17004KT 19/10 A3011 RMK A01 T01890099  RH  056%=      5-min Rain = 0
KVA1 251359Z 18004KT 19/10 A3011 RMK A01 T01900099  RH  055%=      5-min Rain = 0
KVA1 251400Z 18003KT 19/10 A3011 RMK A01 T01920099  RH  055%=      5-min Rain = 0
KVA1 251401Z 18004KT 19/10 A3011 RMK A01 T01930099  RH  055%=      5-min Rain = 0
KVA1 251402Z 19003KT 19/10 A3011 RMK A01 T01930099  RH  055%=      5-min Rain = 0
KVA1 251403Z 19005KT 19/10 A3011 RMK A01 T01930099  RH  054%=      5-min Rain = 0
KVA1 251404Z 19005KT 19/10 A3011 RMK A01 T01930098  RH  054%=      5-min Rain = 0
KVA1 251405Z 20005KT 19/10 A3011 RMK A01 T01930098  RH  054%=      5-min Rain = 0
KVA1 251406Z 18005KT 19/10 A3011 RMK A01 T01930098  RH  054%=      5-min Rain = 0
KVA1 251407Z 19005KT 19/10 A3011 RMK A01 T01930098  RH  054%=      5-min Rain = 0
KVA1 251408Z 20005KT 19/10 A3011 RMK A01 T01940098  RH  054%=      5-min Rain = 0
KVA1 251409Z 20005KT 19/10 A3011 RMK A01 T01940099  RH  054%=      5-min Rain = 0
KVA1 251410Z 19004KT 20/10 A3011 RMK A01 T01950099  RH  054%=      5-min Rain = 0
KVA1 251411Z 19004KT 20/10 A3011 RMK A01 T01960099  RH  053%=      5-min Rain = 0
KVA1 251412Z 19003KT 20/10 A3011 RMK A01 T01970100  RH  053%=      5-min Rain = 0
KVA1 251413Z 20004KT 20/10 A3011 RMK A01 T01980100  RH  053%=      5-min Rain = 0
KVA1 251414Z 20005KT 20/10 A3011 RMK A01 T01990098  RH  052%=      5-min Rain = 0
KVA1 251415Z 18004KT 20/10 A3011 RMK A01 T01990098  RH  052%=      5-min Rain = 0
KVA1 251416Z 19004KT 20/10 A3011 RMK A01 T02000098  RH  052%=      5-min Rain = 0
KVA1 251417Z 18003KT 20/10 A3011 RMK A01 T02000098  RH  052%=      5-min Rain = 0
KVA1 251418Z 19004KT 20/10 A3011 RMK A01 T02010097  RH  051%=      5-min Rain = 0
KVA1 251419Z 18003KT 20/10 A3011 RMK A01 T02020097  RH  051%=      5-min Rain = 0
KVA1 251420Z 20004KT 20/10 A3011 RMK A01 T02020097  RH  051%=      5-min Rain = 0
KVA1 251421Z 20003KT 20/10 A3011 RMK A01 T02030096  RH  050%=      5-min Rain = 0
KVA1 251422Z 20004KT 20/10 A3011 RMK A01 T02030097  RH  051%=      5-min Rain = 0
KVA1 251423Z 19004KT 21/10 A3011 RMK A01 T02050095  RH  049%=      5-min Rain = 0
KVA1 251424Z 19005KT 20/09 A3011 RMK A01 T02040094  RH  049%=      5-min Rain = 0
KVA1 251425Z 18005KT 21/09 A3011 RMK A01 T02050094  RH  049%=      5-min Rain = 0
KVA1 251426Z 19005KT 21/10 A3011 RMK A01 T02050095  RH  049%=      5-min Rain = 0
KVA1 251427Z 21004KT 21/10 A3011 RMK A01 T02060095  RH  049%=      5-min Rain = 0
KVA1 251428Z 20005KT 21/10 A3011 RMK A01 T02070096  RH  049%=      5-min Rain = 0
KVA1 251429Z 19005KT 21/10 A3011 RMK A01 T02080095  RH  049%=      5-min Rain = 0
KVA1 251430Z 19005KT 21/09 A3011 RMK A01 T02080094  RH  048%=      5-min Rain = 0
KVA1 251431Z 20004KT 21/10 A3011 RMK A01 T02090096  RH  048%=      5-min Rain = 0
KVA1 251432Z 19004KT 21/10 A3011 RMK A01 T02090095  RH  048%=      5-min Rain = 0
KVA1 251433Z 19004KT 21/09 A3011 RMK A01 T02090094  RH  048%=      5-min Rain = 0
KVA1 251434Z 19005KT 21/09 A3011 RMK A01 T02090094  RH  048%=      5-min Rain = 0
KVA1 251435Z 17005KT 21/09 A3011 RMK A01 T02090093  RH  047%=      5-min Rain = 0
KVA1 251436Z 17004KT 21/09 A3011 RMK A01 T02100093  RH  047%=      5-min Rain = 0
KVA1 251437Z 19005KT 21/09 A3011 RMK A01 T02100093  RH  047%=      5-min Rain = 0
KVA1 251438Z 18005KT 21/09 A3011 RMK A01 T02110093  RH  047%=      5-min Rain = 0
KVA1 251439Z 19005KT 21/09 A3011 RMK A01 T02110094  RH  047%=      5-min Rain = 0
KVA1 251440Z 21004KT 21/10 A3011 RMK A01 T02120095  RH  047%=      5-min Rain = 0
KVA1 251441Z 21005KT 21/10 A3011 RMK A01 T02130096  RH  047%=      5-min Rain = 0
KVA1 251442Z 19006KT 22/10 A3011 RMK A01 T02150096  RH  046%=      5-min Rain = 0
KVA1 251443Z 19007KT 22/09 A3011 RMK A01 T02160092  RH  045%=      5-min Rain = 0
KVA1 251444Z 19006KT 22/09 A3011 RMK A01 T02160092  RH  045%=      5-min Rain = 0
KVA1 251445Z 20007KT 22/09 A3011 RMK A01 T02150093  RH  045%=      5-min Rain = 0
KVA1 251446Z 20006KT 22/09 A3011 RMK A01 T02160090  RH  045%=      5-min Rain = 0
KVA1 251447Z 21005KT 22/09 A3011 RMK A01 T02160091  RH  045%=      5-min Rain = 0
KVA1 251448Z 21006KT 22/09 A3011 RMK A01 T02170091  RH  045%=      5-min Rain = 0
KVA1 251449Z 20005KT 22/09 A3011 RMK A01 T02170091  RH  044%=      5-min Rain = 0
KVA1 251450Z 20005KT 22/09 A3011 RMK A01 T02180091  RH  044%=      5-min Rain = 0
KVA1 251451Z 20005KT 22/09 A3011 RMK A01 T02190091  RH  044%=      5-min Rain = 0
KVA1 251452Z 21006KT 22/09 A3011 RMK A01 T02200091  RH  044%=      5-min Rain = 0
KVA1 251453Z 21005KT 22/09 A3011 RMK A01 T02200089  RH  043%=      5-min Rain = 0
KVA1 251454Z 22006KT 22/09 A3011 RMK A01 T02210090  RH  043%=      5-min Rain = 0
KVA1 251455Z 20005KT 22/09 A3011 RMK A01 T02220091  RH  043%=      5-min Rain = 0
KVA1 251456Z 21005KT 22/09 A3011 RMK A01 T02230090  RH  042%=      5-min Rain = 0
KVA1 251457Z 21005KT 22/09 A3011 RMK A01 T02240090  RH  042%=      5-min Rain = 0
KVA1 251458Z 21006KT 22/09 A3011 RMK A01 T02240090  RH  042%=      5-min Rain = 0
KVA1 251459Z 21006KT 23/09 A3011 RMK A01 T02250089  RH  042%=      5-min Rain = 0
KVA1 251500Z 21006KT 23/09 A3011 RMK A01 T02250089  RH  042%=      5-min Rain = 0
KVA1 251501Z 21007KT 23/09 A3011 RMK A01 T02260088  RH  041%=      5-min Rain = 0
KVA1 251502Z 21007KT 23/09 A3011 RMK A01 T02260088  RH  041%=      5-min Rain = 0
KVA1 251503Z 20006KT 23/09 A3011 RMK A01 T02270087  RH  041%=      5-min Rain = 0
KVA1 251504Z 21009KT 23/09 A3011 RMK A01 T02280088  RH  041%=      5-min Rain = 0
KVA1 251505Z 21008KT 23/09 A3011 RMK A01 T02280087  RH  040%=      5-min Rain = 0
KVA1 251506Z 21008KT 23/09 A3011 RMK A01 T02280087  RH  040%=      5-min Rain = 0
KVA1 251507Z 20007KT 23/09 A3011 RMK A01 T02280089  RH  041%=      5-min Rain = 0
KVA1 251508Z 21007KT 23/09 A3011 RMK A01 T02290087  RH  040%=      5-min Rain = 0
KVA1 251509Z 20007KT 23/09 A3011 RMK A01 T02300088  RH  040%=      5-min Rain = 0
KVA1 251510Z 21008KT 23/09 A3011 RMK A01 T02300087  RH  040%=      5-min Rain = 0
KVA1 251511Z 20007KT 23/09 A3011 RMK A01 T02300088  RH  040%=      5-min Rain = 0
KVA1 251512Z 19008KT 23/09 A3011 RMK A01 T02310087  RH  040%=      5-min Rain = 0
KVA1 251513Z 20007KT 23/09 A3011 RMK A01 T02310086  RH  040%=      5-min Rain = 0
KVA1 251514Z 19008KT 23/09 A3011 RMK A01 T02320087  RH  040%=      5-min Rain = 0
KVA1 251515Z 20007KT 23/09 A3011 RMK A01 T02320086  RH  039%=      5-min Rain = 0
KVA1 251516Z 20006KT 23/09 A3011 RMK A01 T02330087  RH  039%=      5-min Rain = 0
KVA1 251517Z 21006KT 23/09 A3011 RMK A01 T02340088  RH  039%=      5-min Rain = 0
KVA1 251518Z 20007KT 24/09 A3011 RMK A01 T02350088  RH  039%=      5-min Rain = 0
KVA1 251519Z 20008KT 24/09 A3011 RMK A01 T02350087  RH  039%=      5-min Rain = 0
KVA1 251520Z 20008KT 24/09 A3011 RMK A01 T02360085  RH  038%=      5-min Rain = 0
KVA1 251521Z 20006KT 24/09 A3011 RMK A01 T02360086  RH  038%=      5-min Rain = 0
KVA1 251522Z 20007KT 24/09 A3012 RMK A01 T02370087  RH  038%=      5-min Rain = 0
KVA1 251523Z 20005KT 24/09 A3012 RMK A01 T02380086  RH  038%=      5-min Rain = 0
KVA1 251524Z 21009KT 24/09 A3012 RMK A01 T02380087  RH  038%=      5-min Rain = 0
KVA1 251525Z 20008KT 24/09 A3012 RMK A01 T02380085  RH  038%=      5-min Rain = 0
KVA1 251526Z 21009KT 24/09 A3012 RMK A01 T02380087  RH  038%=      5-min Rain = 0
KVA1 251527Z 20008KT 24/09 A3012 RMK A01 T02380087  RH  038%=      5-min Rain = 0
KVA1 251528Z 20006KT 24/09 A3012 RMK A01 T02380087  RH  038%=      5-min Rain = 0
KVA1 251529Z 20008KT 24/09 A3012 RMK A01 T02390087  RH  038%=      5-min Rain = 0
KVA1 251530Z 19007KT 24/09 A3012 RMK A01 T02400086  RH  038%=      5-min Rain = 0
KVA1 251531Z 20006KT 24/09 A3012 RMK A01 T02410087  RH  037%=      5-min Rain = 0
KVA1 251532Z 20005KT 24/09 A3012 RMK A01 T02430090  RH  038%=      5-min Rain = 0
KVA1 251533Z 21007KT 24/09 A3012 RMK A01 T02430090  RH  038%=      5-min Rain = 0
KVA1 251534Z 21007KT 24/09 A3012 RMK A01 T02440089  RH  037%=      5-min Rain = 0
KVA1 251535Z 20006KT 24/09 A3012 RMK A01 T02420089  RH  038%=      5-min Rain = 0
KVA1 251536Z 20007KT 24/09 A3012 RMK A01 T02420090  RH  038%=      5-min Rain = 0
KVA1 251537Z 21007KT 24/09 A3012 RMK A01 T02440091  RH  038%=      5-min Rain = 0
KVA1 251538Z 20007KT 25/09 A3012 RMK A01 T02450089  RH  037%=      5-min Rain = 0
KVA1 251539Z 20007KT 24/09 A3012 RMK A01 T02440090  RH  037%=      5-min Rain = 0
KVA1 251540Z 19006KT 24/09 A3012 RMK A01 T02440091  RH  038%=      5-min Rain = 0
KVA1 251541Z 22006KT 24/09 A3012 RMK A01 T02440092  RH  038%=      5-min Rain = 0
KVA1 251542Z 21007KT 25/09 A3012 RMK A01 T02460091  RH  037%=      5-min Rain = 0
KVA1 251543Z 21007KT 25/09 A3012 RMK A01 T02460089  RH  037%=      5-min Rain = 0
KVA1 251544Z 20007KT 25/09 A3012 RMK A01 T02450089  RH  037%=      5-min Rain = 0
KVA1 251545Z 21008KT 25/09 A3012 RMK A01 T02460089  RH  037%=      5-min Rain = 0
KVA1 251546Z 21007KT 25/09 A3012 RMK A01 T02470089  RH  037%=      5-min Rain = 0
KVA1 251547Z 22005KT 25/09 A3012 RMK A01 T02470090  RH  037%=      5-min Rain = 0
KVA1 251548Z 19006KT 25/09 A3012 RMK A01 T02490091  RH  037%=      5-min Rain = 0
KVA1 251549Z 22006KT 25/09 A3012 RMK A01 T02510090  RH  036%=      5-min Rain = 0
KVA1 251550Z 22006KT 25/09 A3012 RMK A01 T02500090  RH  036%=      5-min Rain = 0
KVA1 251551Z 22005KT 25/09 A3012 RMK A01 T02500091  RH  036%=      5-min Rain = 0
KVA1 251552Z 21005KT 25/09 A3012 RMK A01 T02510091  RH  036%=      5-min Rain = 0
KVA1 251553Z 20005KT 25/09 A3012 RMK A01 T02530092  RH  036%=      5-min Rain = 0
KVA1 251554Z 21006KT 26/09 A3012 RMK A01 T02550092  RH  036%=      5-min Rain = 0
KVA1 251555Z 22008KT 26/09 A3012 RMK A01 T02550092  RH  035%=      5-min Rain = 0
KVA1 251556Z 21008KT 26/09 A3012 RMK A01 T02550092  RH  036%=      5-min Rain = 0
KVA1 251557Z 20007KT 26/09 A3012 RMK A01 T02560092  RH  035%=      5-min Rain = 0
KVA1 251558Z 19007KT 26/09 A3012 RMK A01 T02570090  RH  035%=      5-min Rain = 0
KVA1 251559Z 19005KT 26/09 A3012 RMK A01 T02580089  RH  035%=      5-min Rain = 0
KVA1 251600Z 21008KT 26/09 A3012 RMK A01 T02580093  RH  035%=      5-min Rain = 0
KVA1 251601Z 20008KT 26/09 A3012 RMK A01 T02600094  RH  035%=      5-min Rain = 0
KVA1 251602Z 21007KT 26/09 A3012 RMK A01 T02600090  RH  034%=      5-min Rain = 0
KVA1 251603Z 20007KT 26/09 A3012 RMK A01 T02580093  RH  035%=      5-min Rain = 0
KVA1 251604Z 20007KT 26/09 A3012 RMK A01 T02580093  RH  035%=      5-min Rain = 0
KVA1 251605Z 20007KT 26/09 A3012 RMK A01 T02560092  RH  035%=      5-min Rain = 0
KVA1 251606Z 20005KT 26/09 A3012 RMK A01 T02550091  RH  036%=      5-min Rain = 0
KVA1 251607Z 21006KT 25/09 A3012 RMK A01 T02540092  RH  036%=      5-min Rain = 0
KVA1 251608Z 20005KT 25/09 A3012 RMK A01 T02540093  RH  036%=      5-min Rain = 0
KVA1 251609Z 18003KT 26/09 A3012 RMK A01 T02550093  RH  036%=      5-min Rain = 0
KVA1 251610Z 19005KT 26/10 A3012 RMK A01 T02550096  RH  037%=      5-min Rain = 0
KVA1 251611Z 16004KT 26/10 A3012 RMK A01 T02570096  RH  036%=      5-min Rain = 0
KVA1 251612Z 20004KT 26/10 A3012 RMK A01 T02600096  RH  035%=      5-min Rain = 0
KVA1 251613Z 19006KT 26/10 A3012 RMK A01 T02620095  RH  035%=      5-min Rain = 0
KVA1 251614Z 20005KT 26/10 A3012 RMK A01 T02620097  RH  035%=      5-min Rain = 0
KVA1 251615Z 17006KT 26/10 A3012 RMK A01 T02640097  RH  035%=      5-min Rain = 0
KVA1 251616Z 18005KT 26/10 A3012 RMK A01 T02640095  RH  034%=      5-min Rain = 0
KVA1 251617Z 19004KT 26/09 A3012 RMK A01 T02630094  RH  035%=      5-min Rain = 0
KVA1 251618Z 22005KT 26/10 A3012 RMK A01 T02640095  RH  035%=      5-min Rain = 0
KVA1 251619Z 21004KT 26/09 A3012 RMK A01 T02640094  RH  034%=      5-min Rain = 0
KVA1 251620Z 20006KT 27/10 A3012 RMK A01 T02650096  RH  034%=      5-min Rain = 0
KVA1 251621Z 19006KT 27/09 A3012 RMK A01 T02680094  RH  034%=      5-min Rain = 0
KVA1 251622Z 19006KT 27/10 A3012 RMK A01 T02690095  RH  033%=      5-min Rain = 0
KVA1 251623Z 18003KT 27/10 A3012 RMK A01 T02680095  RH  034%=      5-min Rain = 0
KVA1 251624Z 16004KT 27/10 A3012 RMK A01 T02680095  RH  034%=      5-min Rain = 0
KVA1 251625Z 18003KT 27/09 A3012 RMK A01 T02700094  RH  033%=      5-min Rain = 0
KVA1 251626Z 19004KT 27/09 A3012 RMK A01 T02720094  RH  033%=      5-min Rain = 0
KVA1 251627Z 20006KT 27/09 A3012 RMK A01 T02720093  RH  032%=      5-min Rain = 0
KVA1 251628Z 21006KT 27/09 A3012 RMK A01 T02730094  RH  033%=      5-min Rain = 0
KVA1 251629Z 20004KT 27/09 A3012 RMK A01 T02720094  RH  032%=      5-min Rain = 0
KVA1 251630Z 22005KT 27/09 A3012 RMK A01 T02720094  RH  033%=      5-min Rain = 0
KVA1 251631Z 21005KT 27/09 A3011 RMK A01 T02720094  RH  033%=      5-min Rain = 0
KVA1 251632Z 22006KT 27/09 A3011 RMK A01 T02720094  RH  033%=      5-min Rain = 0
KVA1 251633Z 20005KT 27/09 A3011 RMK A01 T02710094  RH  033%=      5-min Rain = 0
KVA1 251634Z 20005KT 27/09 A3011 RMK A01 T02730093  RH  032%=      5-min Rain = 0
KVA1 251635Z 21005KT 27/09 A3011 RMK A01 T02740091  RH  032%=      5-min Rain = 0
KVA1 251636Z 20004KT 28/09 A3011 RMK A01 T02750093  RH  032%=      5-min Rain = 0
KVA1 251637Z 19006KT 28/09 A3011 RMK A01 T02770093  RH  032%=      5-min Rain = 0
KVA1 251638Z 21005KT 28/09 A3011 RMK A01 T02780093  RH  031%=      5-min Rain = 0
KVA1 251639Z 23005KT 28/09 A3011 RMK A01 T02770092  RH  031%=      5-min Rain = 0
KVA1 251640Z 20005KT 28/09 A3011 RMK A01 T02750091  RH  031%=      5-min Rain = 0
KVA1 251641Z 20004KT 27/09 A3011 RMK A01 T02740091  RH  032%=      5-min Rain = 0
KVA1 251642Z 20005KT 28/09 A3011 RMK A01 T02750093  RH  032%=      5-min Rain = 0
KVA1 251643Z 22007KT 28/09 A3011 RMK A01 T02780091  RH  031%=      5-min Rain = 0
KVA1 251644Z 24005KT 28/09 A3011 RMK A01 T02780091  RH  031%=      5-min Rain = 0
KVA1 251645Z 24004KT 28/09 A3011 RMK A01 T02790092  RH  031%=      5-min Rain = 0
KVA1 251646Z 22004KT 28/09 A3011 RMK A01 T02800092  RH  031%=      5-min Rain = 0
KVA1 251647Z 22006KT 28/10 A3011 RMK A01 T02810095  RH  031%=      5-min Rain = 0
KVA1 251648Z 21006KT 28/09 A3011 RMK A01 T02830093  RH  030%=      5-min Rain = 0
KVA1 251649Z 20005KT 28/09 A3011 RMK A01 T02840091  RH  030%=      5-min Rain = 0
KVA1 251650Z 19005KT 28/09 A3011 RMK A01 T02820091  RH  030%=      5-min Rain = 0
KVA1 251651Z 19004KT 28/09 A3011 RMK A01 T02810092  RH  030%=      5-min Rain = 0
KVA1 251652Z 18005KT 28/09 A3011 RMK A01 T02810092  RH  031%=      5-min Rain = 0
KVA1 251653Z 19005KT 28/09 A3011 RMK A01 T02830092  RH  030%=      5-min Rain = 0
KVA1 251654Z 21006KT 29/09 A3011 RMK A01 T02850091  RH  030%=      5-min Rain = 0
KVA1 251655Z 21007KT 29/09 A3011 RMK A01 T02860091  RH  029%=      5-min Rain = 0
KVA1 251656Z 21006KT 29/09 A3011 RMK A01 T02850091  RH  030%=      5-min Rain = 0
KVA1 251657Z 23007KT 28/09 A3011 RMK A01 T02840087  RH  029%=      5-min Rain = 0
KVA1 251658Z 23006KT 28/09 A3011 RMK A01 T02830088  RH  029%=      5-min Rain = 0
KVA1 251659Z 20005KT 29/09 A3011 RMK A01 T02850090  RH  029%=      5-min Rain = 0
KVA1 251700Z 22007KT 29/09 A3011 RMK A01 T02870090  RH  029%=      5-min Rain = 0
KVA1 251701Z 22008KT 29/09 A3011 RMK A01 T02890088  RH  028%=      5-min Rain = 0
KVA1 251702Z 21009KT 29/09 A3011 RMK A01 T02880087  RH  028%=      5-min Rain = 0
KVA1 251703Z 23007KT 29/09 A3011 RMK A01 T02880088  RH  029%=      5-min Rain = 0
KVA1 251704Z 24006KT 29/09 A3011 RMK A01 T02900088  RH  028%=      5-min Rain = 0
KVA1 251705Z 23006KT 29/09 A3011 RMK A01 T02900087  RH  028%=      5-min Rain = 0
KVA1 251706Z 23006KT 29/09 A3011 RMK A01 T02910088  RH  028%=      5-min Rain = 0
KVA1 251707Z 22005KT 29/09 A3011 RMK A01 T02930085  RH  027%=      5-min Rain = 0
KVA1 251708Z 22007KT 29/09 A3011 RMK A01 T02940090  RH  028%=      5-min Rain = 0
KVA1 251709Z 20007KT 29/09 A3011 RMK A01 T02940091  RH  028%=      5-min Rain = 0
KVA1 251710Z 19006KT 29/09 A3011 RMK A01 T02940090  RH  028%=      5-min Rain = 0
KVA1 251711Z 19005KT 29/09 A3011 RMK A01 T02930090  RH  028%=      5-min Rain = 0
KVA1 251712Z 21006KT 29/09 A3011 RMK A01 T02920088  RH  028%=      5-min Rain = 0
KVA1 251713Z 24006KT 29/08 A3011 RMK A01 T02930082  RH  027%=      5-min Rain = 0
KVA1 251714Z 23004KT 29/08 A3011 RMK A01 T02940082  RH  026%=      5-min Rain = 0
KVA1 251715Z 23002KT 29/08 A3011 RMK A01 T02940078  RH  026%=      5-min Rain = 0
KVA1 251716Z 20004KT 30/09 A301 RMK A01 T02950085  RH  027%=      5-min Rain = 0
KVA1 251717Z 22008KT 30/09 A301 RMK A01 T02960088  RH  027%=      5-min Rain = 0
KVA1 251718Z 22006KT 30/09 A301 RMK A01 T02970087  RH  027%=      5-min Rain = 0
KVA1 251719Z 19005KT 30/09 A301 RMK A01 T02950085  RH  027%=      5-min Rain = 0
KVA1 251720Z 21008KT 30/09 A301 RMK A01 T02950086  RH  027%=      5-min Rain = 0
KVA1 251721Z 21007KT 30/09 A301 RMK A01 T02960089  RH  027%=      5-min Rain = 0
KVA1 251722Z 20006KT 30/09 A301 RMK A01 T02970090  RH  028%=      5-min Rain = 0
KVA1 251723Z 22004KT 30/09 A301 RMK A01 T02970089  RH  027%=      5-min Rain = 0
KVA1 251724Z 24003KT 30/09 A301 RMK A01 T02970087  RH  027%=      5-min Rain = 0
KVA1 251725Z 26004KT 30/09 A301 RMK A01 T02970088  RH  027%=      5-min Rain = 0
KVA1 251726Z 26003KT 30/09 A301 RMK A01 T02980088  RH  027%=      5-min Rain = 0
KVA1 251727Z 25004KT 30/09 A301 RMK A01 T02980087  RH  027%=      5-min Rain = 0
KVA1 251728Z 21004KT 30/09 A301 RMK A01 T02990089  RH  027%=      5-min Rain = 0
KVA1 251729Z 22006KT 30/09 A301 RMK A01 T03020089  RH  027%=      5-min Rain = 0
KVA1 251730Z 23008KT 31/09 A301 RMK A01 T03050087  RH  026%=      5-min Rain = 0
KVA1 251731Z 22007KT 31/09 A301 RMK A01 T03060085  RH  025%=      5-min Rain = 0
KVA1 251732Z 21005KT 30/08 A301 RMK A01 T03040082  RH  025%=      5-min Rain = 0
KVA1 251733Z 24004KT 30/09 A301 RMK A01 T03010085  RH  026%=      5-min Rain = 0
KVA1 251734Z 26004KT 30/09 A301 RMK A01 T03030085  RH  026%=      5-min Rain = 0
KVA1 251735Z 28001KT 30/08 A301 RMK A01 T03020082  RH  025%=      5-min Rain = 0
KVA1 251736Z 24001KT 30/08 A301 RMK A01 T03000082  RH  026%=      5-min Rain = 0
KVA1 251737Z 24005KT 30/09 A301 RMK A01 T03020085  RH  026%=      5-min Rain = 0
KVA1 251738Z 24007KT 31/09 A301 RMK A01 T03050086  RH  026%=      5-min Rain = 0
KVA1 251739Z 25006KT 31/08 A301 RMK A01 T03070084  RH  025%=      5-min Rain = 0
KVA1 251740Z 23003KT 31/08 A301 RMK A01 T03060082  RH  025%=      5-min Rain = 0
KVA1 251741Z 22002KT 31/08 A301 RMK A01 T03050082  RH  025%=      5-min Rain = 0
KVA1 251742Z 17002KT 31/08 A301 RMK A01 T03060082  RH  025%=      5-min Rain = 0
KVA1 251743Z 21002KT 31/08 A3009 RMK A01 T03070082  RH  025%=      5-min Rain = 0
KVA1 251744Z 19005KT 31/08 A3009 RMK A01 T03070082  RH  025%=      5-min Rain = 0
KVA1 251745Z 21007KT 31/08 A3009 RMK A01 T03070083  RH  025%=      5-min Rain = 0
KVA1 251746Z 21007KT 31/08 A3009 RMK A01 T03080082  RH  024%=      5-min Rain = 0
KVA1 251747Z 19004KT 31/08 A3009 RMK A01 T03070080  RH  024%=      5-min Rain = 0
KVA1 251748Z 20004KT 31/08 A3009 RMK A01 T03060082  RH  025%=      5-min Rain = 0
KVA1 251749Z 26004KT 31/09 A3009 RMK A01 T03080086  RH  025%=      5-min Rain = 0
KVA1 251750Z 23006KT 31/09 A3009 RMK A01 T03120088  RH  025%=      5-min Rain = 0
KVA1 251751Z 24006KT 31/09 A3009 RMK A01 T03140086  RH  024%=      5-min Rain = 0
KVA1 251752Z 21006KT 31/09 A3009 RMK A01 T03140087  RH  024%=      5-min Rain = 0
KVA1 251753Z 22006KT 32/09 A3009 RMK A01 T03150086  RH  024%=      5-min Rain = 0
KVA1 251754Z 19005KT 31/08 A3009 RMK A01 T03130084  RH  024%=      5-min Rain = 0
KVA1 251755Z 18002KT 31/08 A3009 RMK A01 T03130081  RH  024%=      5-min Rain = 0
KVA1 251756Z 18001KT 31/08 A3009 RMK A01 T03110081  RH  024%=      5-min Rain = 0
KVA1 251757Z 22006KT 31/08 A3009 RMK A01 T03130083  RH  024%=      5-min Rain = 0
KVA1 251758Z 22006KT 32/08 A3009 RMK A01 T03150083  RH  024%=      5-min Rain = 0
KVA1 251759Z 22004KT 32/08 A3009 RMK A01 T03150081  RH  023%=      5-min Rain = 0
KVA1 251800Z 22003KT 31/08 A3009 RMK A01 T03130080  RH  024%=      5-min Rain = 0
KVA1 251801Z 19005KT 31/08 A3009 RMK A01 T03120083  RH  024%=      5-min Rain = 0
KVA1 251802Z 22007KT 31/09 A3009 RMK A01 T03140085  RH  024%=      5-min Rain = 0
KVA1 251803Z 24007KT 32/09 A3009 RMK A01 T03160085  RH  024%=      5-min Rain = 0
KVA1 251804Z 23006KT 32/08 A3009 RMK A01 T03190082  RH  023%=      5-min Rain = 0
KVA1 251805Z 21004KT 32/08 A3008 RMK A01 T03180080  RH  023%=      5-min Rain = 0
KVA1 251806Z 20002KT 32/08 A3008 RMK A01 T03180082  RH  023%=      5-min Rain = 0
KVA1 251807Z 22005KT 32/08 A3008 RMK A01 T03200084  RH  023%=      5-min Rain = 0
KVA1 251808Z 20004KT 32/08 A3008 RMK A01 T03230084  RH  023%=      5-min Rain = 0
KVA1 251809Z 21006KT 32/08 A3008 RMK A01 T03220083  RH  023%=      5-min Rain = 0
KVA1 251810Z 22002KT 32/08 A3008 RMK A01 T03180081  RH  023%=      5-min Rain = 0
KVA1 251811Z 19005KT 32/08 A3008 RMK A01 T03180081  RH  023%=      5-min Rain = 0
KVA1 251812Z 20006KT 32/08 A3008 RMK A01 T03180082  RH  023%=      5-min Rain = 0
KVA1 251813Z 21005KT 32/08 A3008 RMK A01 T03190080  RH  023%=      5-min Rain = 0
KVA1 251814Z 20006KT 32/08 A3008 RMK A01 T03180081  RH  023%=      5-min Rain = 0
KVA1 251815Z 21009KT 32/08 A3008 RMK A01 T03210080  RH  022%=      5-min Rain = 0
KVA1 251816Z 22007KT 32/07 A3008 RMK A01 T03230074  RH  021%=      5-min Rain = 0
KVA1 251817Z 21008KT 32/07 A3008 RMK A01 T03240074  RH  021%=      5-min Rain = 0
KVA1 251818Z 23008KT 33/07 A3008 RMK A01 T03260074  RH  021%=      5-min Rain = 0
KVA1 251819Z 21008KT 32/07 A3008 RMK A01 T03240074  RH  021%=      5-min Rain = 0
KVA1 251820Z 21004KT 32/08 A3008 RMK A01 T03230075  RH  021%=      5-min Rain = 0
KVA1 251821Z 22002KT 33/07 A3008 RMK A01 T03250072  RH  021%=      5-min Rain = 0
KVA1 251822Z 18006KT 33/07 A3007 RMK A01 T03270072  RH  021%=      5-min Rain = 0
KVA1 251823Z 18004KT 33/07 A3007 RMK A01 T03280070  RH  020%=      5-min Rain = 0
KVA1 251824Z 26004KT 33/07 A3007 RMK A01 T03260072  RH  021%=      5-min Rain = 0
KVA1 251825Z 23004KT 33/07 A3007 RMK A01 T03270073  RH  021%=      5-min Rain = 0
KVA1 251826Z 27004KT 33/07 A3007 RMK A01 T03300074  RH  020%=      5-min Rain = 0
KVA1 251827Z 24003KT 33/07 A3007 RMK A01 T03340070  RH  020%=      5-min Rain = 0
KVA1 251828Z 21002KT 34/07 A3007 RMK A01 T03350068  RH  019%=      5-min Rain = 0
KVA1 251829Z 18003KT 33/07 A3007 RMK A01 T03330066  RH  019%=      5-min Rain = 0
KVA1 251830Z 23004KT 33/07 A3007 RMK A01 T03310066  RH  019%=      5-min Rain = 0
KVA1 251831Z 25005KT 33/07 A3007 RMK A01 T03300067  RH  019%=      5-min Rain = 0
KVA1 251832Z 26007KT 33/06 A3007 RMK A01 T03330057  RH  018%=      5-min Rain = 0
KVA1 251833Z 28005KT 33/05 A3007 RMK A01 T03340054  RH  017%=      5-min Rain = 0
KVA1 251834Z 25011KT 34/05 A3007 RMK A01 T03350054  RH  017%=      5-min Rain = 0
KVA1 251835Z 25009KT 34/06 A3007 RMK A01 T03360055  RH  017%=      5-min Rain = 0
KVA1 251836Z 24009KT 34/05 A3007 RMK A01 T03350053  RH  017%=      5-min Rain = 0
KVA1 251837Z 24008KT 33/05 A3007 RMK A01 T03330054  RH  018%=      5-min Rain = 0
KVA1 251838Z 28009KT 34/06 A3007 RMK A01 T03350056  RH  018%=      5-min Rain = 0
KVA1 251839Z 24009KT 33/05 A3007 RMK A01 T03340054  RH  017%=      5-min Rain = 0
KVA1 251840Z 23008KT 33/05 A3007 RMK A01 T03340054  RH  017%=      5-min Rain = 0
KVA1 251841Z 22009KT 33/06 A3006 RMK A01 T03340055  RH  018%=      5-min Rain = 0
KVA1 251842Z 24004KT 34/06 A3006 RMK A01 T03370055  RH  017%=      5-min Rain = 0
KVA1 251843Z 27007KT 34/05 A3006 RMK A01 T03370053  RH  017%=      5-min Rain = 0
KVA1 251844Z 25003KT 33/05 A3006 RMK A01 T03330051  RH  017%=      5-min Rain = 0
KVA1 251845Z 27003KT 33/05 A3006 RMK A01 T03320051  RH  017%=      5-min Rain = 0
KVA1 251846Z 26005KT 33/05 A3006 RMK A01 T03320052  RH  017%=      5-min Rain = 0
KVA1 251847Z 24004KT 33/05 A3006 RMK A01 T03330053  RH  017%=      5-min Rain = 0
KVA1 251848Z 23006KT 34/06 A3006 RMK A01 T03360055  RH  017%=      5-min Rain = 0
KVA1 251849Z 28007G12KT 34/06 A3006 RMK A01 T03410058  RH  017%=      5-min Rain = 0
KVA1 251850Z 29010KT 35/06 A3006 RMK A01 T03450060  RH  017%=      5-min Rain = 0
KVA1 251851Z 29011KT 34/06 A3006 RMK A01 T03440059  RH  017%=      5-min Rain = 0
KVA1 251852Z 30009KT 34/06 A3006 RMK A01 T03430058  RH  017%=      5-min Rain = 0
KVA1 251853Z 32009KT 34/06 A3006 RMK A01 T03410058  RH  017%=      5-min Rain = 0
KVA1 251854Z 32006KT 34/05 A3006 RMK A01 T03390054  RH  017%=      5-min Rain = 0
KVA1 251855Z 32007KT 34/06 A3006 RMK A01 T03370056  RH  017%=      5-min Rain = 0
KVA1 251856Z 31013KT 34/06 A3006 RMK A01 T03380056  RH  017%=      5-min Rain = 0
KVA1 251857Z 31008KT 34/06 A3006 RMK A01 T03380056  RH  017%=      5-min Rain = 0
KVA1 251858Z 30006KT 34/06 A3006 RMK A01 T03360056  RH  017%=      5-min Rain = 0
KVA1 251859Z 29004KT 34/06 A3006 RMK A01 T03350056  RH  018%=      5-min Rain = 0
KVA1 251900Z 26004KT 33/06 A3006 RMK A01 T03340056  RH  018%=      5-min Rain = 0
KVA1 251901Z 24006KT 34/06 A3006 RMK A01 T03360056  RH  018%=      5-min Rain = 0
KVA1 251902Z 23007KT 34/06 A3005 RMK A01 T03390057  RH  017%=      5-min Rain = 0
KVA1 251903Z 24005KT 34/06 A3005 RMK A01 T03400055  RH  017%=      5-min Rain = 0
KVA1 251904Z 23005KT 34/06 A3005 RMK A01 T03390055  RH  017%=      5-min Rain = 0
KVA1 251905Z 20008KT 34/06 A3005 RMK A01 T03410056  RH  017%=      5-min Rain = 0
KVA1 251906Z 22009KT 34/06 A3005 RMK A01 T03420058  RH  017%=      5-min Rain = 0
KVA1 251907Z 25010KT 35/06 A3005 RMK A01 T03450057  RH  017%=      5-min Rain = 0
KVA1 251908Z 28009KT 35/06 A3005 RMK A01 T03480057  RH  016%=      5-min Rain = 0
KVA1 251909Z 28006KT 35/06 A3005 RMK A01 T03480056  RH  016%=      5-min Rain = 0
KVA1 251910Z 29005KT 35/06 A3005 RMK A01 T03470056  RH  016%=      5-min Rain = 0
KVA1 251911Z 30004KT 35/06 A3005 RMK A01 T03470055  RH  016%=      5-min Rain = 0
KVA1 251912Z 35005KT 34/06 A3005 RMK A01 T03440056  RH  017%=      5-min Rain = 0
KVA1 251913Z 33006KT 35/06 A3005 RMK A01 T03450056  RH  017%=      5-min Rain = 0
KVA1 251914Z 35004KT 35/06 A3005 RMK A01 T03470060  RH  017%=      5-min Rain = 0
KVA1 251915Z 30005KT 35/05 A3005 RMK A01 T03500054  RH  016%=      5-min Rain = 0
KVA1 251916Z 28008KT 35/05 A3005 RMK A01 T03480050  RH  016%=      5-min Rain = 0
KVA1 251917Z 26006KT 35/05 A3005 RMK A01 T03450048  RH  016%=      5-min Rain = 0
KVA1 251918Z 26009KT 34/05 A3004 RMK A01 T03440049  RH  016%=      5-min Rain = 0
KVA1 251919Z 27010KT 34/05 A3004 RMK A01 T03440048  RH  016%=      5-min Rain = 0
KVA1 251920Z 28008KT 34/05 A3004 RMK A01 T03420048  RH  016%=      5-min Rain = 0
KVA1 251921Z 27010KT 34/05 A3004 RMK A01 T03420050  RH  016%=      5-min Rain = 0
KVA1 251922Z 27009KT 34/05 A3004 RMK A01 T03430048  RH  016%=      5-min Rain = 0
KVA1 251923Z 26006KT 34/05 A3004 RMK A01 T03420047  RH  016%=      5-min Rain = 0
KVA1 251924Z 26004KT 34/05 A3004 RMK A01 T03400047  RH  016%=      5-min Rain = 0
KVA1 251925Z 26005KT 34/05 A3004 RMK A01 T03420047  RH  016%=      5-min Rain = 0
KVA1 251926Z 26010KT 34/05 A3004 RMK A01 T03440046  RH  016%=      5-min Rain = 0
KVA1 251927Z 26009KT 35/05 A3004 RMK A01 T03460047  RH  015%=      5-min Rain = 0
KVA1 251928Z 25009KT 35/04 A3004 RMK A01 T03490044  RH  015%=      5-min Rain = 0
KVA1 251929Z 25008G13KT 35/04 A3004 RMK A01 T03510043  RH  015%=      5-min Rain = 0
KVA1 251930Z 24009KT 35/04 A3004 RMK A01 T03490041  RH  015%=      5-min Rain = 0
KVA1 251931Z 25007KT 35/04 A3004 RMK A01 T03480041  RH  015%=      5-min Rain = 0
KVA1 251932Z 28008KT 35/04 A3004 RMK A01 T03480041  RH  015%=      5-min Rain = 0
KVA1 251933Z 32007G12KT 35/04 A3004 RMK A01 T03480042  RH  015%=      5-min Rain = 0
KVA1 251934Z 34007KT 35/05 A3004 RMK A01 T03470049  RH  016%=      5-min Rain = 0
KVA1 251935Z 33007KT 35/06 A3004 RMK A01 T03460055  RH  016%=      5-min Rain = 0
KVA1 251936Z 32007KT 35/04 A3004 RMK A01 T03470041  RH  015%=      5-min Rain = 0
KVA1 251937Z 31006KT 35/04 A3004 RMK A01 T03460038  RH  015%=      5-min Rain = 0
KVA1 251938Z 32006KT 35/04 A3004 RMK A01 T03450039  RH  015%=      5-min Rain = 0
KVA1 251939Z 31005KT 35/04 A3004 RMK A01 T03480040  RH  015%=      5-min Rain = 0
KVA1 251940Z 27002KT 35/04 A3004 RMK A01 T03470038  RH  014%=      5-min Rain = 0
KVA1 251941Z 01002KT 35/04 A3003 RMK A01 T03460039  RH  015%=      5-min Rain = 0
KVA1 251942Z 03004KT 35/04 A3003 RMK A01 T03490039  RH  014%=      5-min Rain = 0
KVA1 251943Z 07003KT 35/04 A3003 RMK A01 T03480038  RH  014%=      5-min Rain = 0
KVA1 251944Z 10003KT 35/04 A3003 RMK A01 T03450039  RH  015%=      5-min Rain = 0
KVA1 251945Z 08003KT 34/04 A3003 RMK A01 T03440042  RH  015%=      5-min Rain = 0
KVA1 251946Z 06004KT 35/04 A3003 RMK A01 T03470043  RH  015%=      5-min Rain = 0
KVA1 251947Z 35003KT 35/04 A3003 RMK A01 T03500041  RH  015%=      5-min Rain = 0
KVA1 251948Z 01003KT 35/04 A3003 RMK A01 T03480037  RH  014%=      5-min Rain = 0
KVA1 251949Z 01004KT 35/05 A3003 RMK A01 T03460048  RH  016%=      5-min Rain = 0
KVA1 251950Z 00004KT 34/05 A3003 RMK A01 T03440051  RH  016%=      5-min Rain = 0
KVA1 251951Z 36008G14KT 35/05 A3003 RMK A01 T03450054  RH  016%=      5-min Rain = 0
KVA1 251952Z 01010KT 35/05 A3003 RMK A01 T03470054  RH  016%=      5-min Rain = 0
KVA1 251953Z 02010KT 35/05 A3003 RMK A01 T03470052  RH  016%=      5-min Rain = 0
KVA1 251954Z 02009KT 35/05 A3003 RMK A01 T03460050  RH  016%=      5-min Rain = 0
KVA1 251955Z 03007KT 35/05 A3003 RMK A01 T03480049  RH  016%=      5-min Rain = 0
KVA1 251956Z 07005KT 35/05 A3003 RMK A01 T03480045  RH  015%=      5-min Rain = 0
KVA1 251957Z 02007KT 35/05 A3003 RMK A01 T03450048  RH  016%=      5-min Rain = 0
KVA1 251958Z 06008KT 35/05 A3003 RMK A01 T03450048  RH  016%=      5-min Rain = 0
KVA1 251959Z 02007KT 34/05 A3003 RMK A01 T03440047  RH  016%=      5-min Rain = 0
KVA1 252000Z 36007KT 35/05 A3003 RMK A01 T03460045  RH  015%=      5-min Rain = 0
KVA1 252001Z 36005KT 35/04 A3003 RMK A01 T03460044  RH  015%=      5-min Rain = 0
KVA1 252002Z 35004KT 34/05 A3003 RMK A01 T03440048  RH  016%=      5-min Rain = 0
KVA1 252003Z 02002KT 34/04 A3003 RMK A01 T03440039  RH  015%=      5-min Rain = 0
KVA1 252004Z 08002KT 34/04 A3002 RMK A01 T03430039  RH  015%=      5-min Rain = 0
KVA1 252005Z 05002KT 34/04 A3002 RMK A01 T03430039  RH  015%=      5-min Rain = 0
KVA1 252006Z 01003KT 34/04 A3002 RMK A01 T03420040  RH  015%=      5-min Rain = 0
KVA1 252007Z 00006KT 34/05 A3002 RMK A01 T03440045  RH  015%=      5-min Rain = 0
KVA1 252008Z 01008KT 35/04 A3002 RMK A01 T03480043  RH  015%=      5-min Rain = 0
KVA1 252009Z 02010KT 35/04 A3002 RMK A01 T03510038  RH  014%=      5-min Rain = 0
KVA1 252010Z 03009KT 35/04 A3002 RMK A01 T03520037  RH  014%=      5-min Rain = 0
KVA1 252011Z 03007KT 35/04 A3002 RMK A01 T03510036  RH  014%=      5-min Rain = 0
KVA1 252012Z 05006KT 35/03 A3002 RMK A01 T03480034  RH  014%=      5-min Rain = 0
KVA1 252013Z 05002KT 35/03 A3002 RMK A01 T03460032  RH  014%=      5-min Rain = 0
KVA1 252014Z 03004KT 34/03 A3002 RMK A01 T03440034  RH  014%=      5-min Rain = 0
KVA1 252015Z 03010KT 35/03 A3002 RMK A01 T03460033  RH  014%=      5-min Rain = 0
KVA1 252016Z 03007KT 35/03 A3002 RMK A01 T03490030  RH  014%=      5-min Rain = 0
KVA1 252017Z 06005KT 35/03 A3002 RMK A01 T03480029  RH  014%=      5-min Rain = 0
KVA1 252018Z 08006KT 35/03 A3002 RMK A01 T03450027  RH  014%=      5-min Rain = 0
KVA1 252019Z 07010KT 34/03 A3002 RMK A01 T03440025  RH  014%=      5-min Rain = 0
KVA1 252020Z 06006KT 34/03 A3002 RMK A01 T03430026  RH  014%=      5-min Rain = 0
KVA1 252021Z 06004KT 34/03 A3002 RMK A01 T03410025  RH  014%=      5-min Rain = 0
KVA1 252022Z 02002KT 34/03 A3002 RMK A01 T03390026  RH  014%=      5-min Rain = 0
KVA1 252023Z 35003KT 34/03 A3002 RMK A01 T03390025  RH  014%=      5-min Rain = 0
KVA1 252024Z 04006KT 34/03 A3002 RMK A01 T03400026  RH  014%=      5-min Rain = 0
KVA1 252025Z 04007KT 34/03 A3002 RMK A01 T03420027  RH  014%=      5-min Rain = 0
KVA1 252026Z 02006KT 34/02 A3002 RMK A01 T03430022  RH  013%=      5-min Rain = 0
KVA1 252027Z 02006KT 34/02 A3002 RMK A01 T03430022  RH  013%=      5-min Rain = 0
KVA1 252028Z 02007G12KT 35/02 A3001 RMK A01 T03450022  RH  013%=      5-min Rain = 0
KVA1 252029Z 00006KT 35/02 A3001 RMK A01 T03470018  RH  013%=      5-min Rain = 0
KVA1 252030Z 05007KT 35/02 A3001 RMK A01 T03500015  RH  012%=      5-min Rain = 0
KVA1 252031Z 04007KT 35/02 A3001 RMK A01 T03520017  RH  012%=      5-min Rain = 0
KVA1 252032Z 02008KT 35/02 A3001 RMK A01 T03520018  RH  012%=      5-min Rain = 0
KVA1 252033Z 01006KT 35/02 A3001 RMK A01 T03520016  RH  012%=      5-min Rain = 0
KVA1 252034Z 03007KT 35/02 A3001 RMK A01 T03510015  RH  012%=      5-min Rain = 0
KVA1 252035Z 01007KT 35/02 A3001 RMK A01 T03500015  RH  012%=      5-min Rain = 0
KVA1 252036Z 35005KT 35/01 A3001 RMK A01 T03500013  RH  012%=      5-min Rain = 0
KVA1 252037Z 02007KT 35/01 A3001 RMK A01 T03510010  RH  012%=      5-min Rain = 0
KVA1 252038Z 05006KT 35/01 A3001 RMK A01 T03510008  RH  011%=      5-min Rain = 0
KVA1 252039Z 06006KT 35/01 A3001 RMK A01 T03490010  RH  012%=      5-min Rain = 0
KVA1 252040Z 07004KT 35/01 A3001 RMK A01 T03490011  RH  012%=      5-min Rain = 0
KVA1 252041Z 07004KT 35/01 A3001 RMK A01 T03490014  RH  012%=      5-min Rain = 0
KVA1 252042Z 09007KT 35/02 A3001 RMK A01 T03500019  RH  012%=      5-min Rain = 0
KVA1 252043Z 08007KT 35/02 A3001 RMK A01 T03510019  RH  012%=      5-min Rain = 0
KVA1 252044Z 04004KT 35/01 A3001 RMK A01 T03510014  RH  012%=      5-min Rain = 0
KVA1 252045Z 00001KT 35/01 A3001 RMK A01 T03490013  RH  012%=      5-min Rain = 0
KVA1 252046Z 05004KT 35/02 A3001 RMK A01 T03480015  RH  012%=      5-min Rain = 0
KVA1 252047Z 05004KT 35/02 A3001 RMK A01 T03500021  RH  013%=      5-min Rain = 0
KVA1 252048Z 02005KT 35/02 A3001 RMK A01 T03510024  RH  013%=      5-min Rain = 0
KVA1 252049Z 33006KT 35/03 A3001 RMK A01 T03520029  RH  013%=      5-min Rain = 0
KVA1 252050Z 33002KT 35/03 A3001 RMK A01 T03490028  RH  013%=      5-min Rain = 0
KVA1 252051Z 35003KT 35/03 A3001 RMK A01 T03490029  RH  014%=      5-min Rain = 0
KVA1 252052Z 02002KT 35/03 A3001 RMK A01 T03500028  RH  013%=      5-min Rain = 0
KVA1 252053Z 01005KT 35/03 A3001 RMK A01 T03490027  RH  013%=      5-min Rain = 0
KVA1 252054Z 35008KT 35/03 A3001 RMK A01 T03490031  RH  014%=      5-min Rain = 0
KVA1 252055Z 00007KT 35/03 A3001 RMK A01 T03520031  RH  013%=      5-min Rain = 0
KVA1 252056Z 03007KT 36/03 A3001 RMK A01 T03550032  RH  013%=      5-min Rain = 0
KVA1 252057Z 05007KT 36/03 A30 RMK A01 T03570030  RH  013%=      5-min Rain = 0
KVA1 252058Z 02005KT 35/03 A30 RMK A01 T03530029  RH  013%=      5-min Rain = 0
KVA1 252059Z 02009KT 35/03 A30 RMK A01 T03520029  RH  013%=      5-min Rain = 0
KVA1 252100Z 04006KT 35/03 A30 RMK A01 T03520027  RH  013%=      5-min Rain = 0
KVA1 252101Z 05005KT 35/03 A30 RMK A01 T03510025  RH  013%=      5-min Rain = 0
KVA1 252102Z 05005KT 35/03 A30 RMK A01 T03490026  RH  013%=      5-min Rain = 0
KVA1 252103Z 02005KT 35/03 A30 RMK A01 T03520028  RH  013%=      5-min Rain = 0
KVA1 252104Z 00005KT 35/03 A30 RMK A01 T03540026  RH  013%=      5-min Rain = 0
KVA1 252105Z 06007KT 35/03 A30 RMK A01 T03520025  RH  013%=      5-min Rain = 0
KVA1 252106Z 05005KT 35/02 A30 RMK A01 T03490023  RH  013%=      5-min Rain = 0
KVA1 252107Z 06007KT 35/03 A30 RMK A01 T03510028  RH  013%=      5-min Rain = 0
KVA1 252108Z 06005KT 36/03 A30 RMK A01 T03550027  RH  013%=      5-min Rain = 0
KVA1 252109Z 10005KT 36/03 A30 RMK A01 T03550030  RH  013%=      5-min Rain = 0
KVA1 252110Z 08006KT 35/03 A30 RMK A01 T03540032  RH  013%=      5-min Rain = 0
KVA1 252111Z 09004KT 35/03 A30 RMK A01 T03540032  RH  013%=      5-min Rain = 0
KVA1 252112Z 06002KT 35/03 A30 RMK A01 T03530030  RH  013%=      5-min Rain = 0
KVA1 252113Z 34001KT 35/03 A30 RMK A01 T03520029  RH  013%=      5-min Rain = 0
KVA1 252114Z 32003KT 35/03 A30 RMK A01 T03510026  RH  013%=      5-min Rain = 0
KVA1 252115Z 32003KT 35/03 A30 RMK A01 T03500026  RH  013%=      5-min Rain = 0
KVA1 252116Z 25002KT 35/03 A30 RMK A01 T03500026  RH  013%=      5-min Rain = 0
KVA1 252117Z 21001KT 35/03 A30 RMK A01 T03500026  RH  013%=      5-min Rain = 0
KVA1 252118Z 20001KT 35/03 A30 RMK A01 T03510026  RH  013%=      5-min Rain = 0
KVA1 252119Z 18001KT 35/03 A30 RMK A01 T03520027  RH  013%=      5-min Rain = 0
KVA1 252120Z 24001KT 35/03 A30 RMK A01 T03530027  RH  013%=      5-min Rain = 0
KVA1 252121Z 04003KT 36/03 A30 RMK A01 T03550027  RH  013%=      5-min Rain = 0
KVA1 252122Z 03004KT 35/02 A30 RMK A01 T03540024  RH  013%=      5-min Rain = 0
KVA1 252123Z 01007KT 35/02 A30 RMK A01 T03510024  RH  013%=      5-min Rain = 0
KVA1 252124Z 02005KT 35/02 A30 RMK A01 T03480021  RH  013%=      5-min Rain = 0
KVA1 252125Z 00006KT 35/02 A30 RMK A01 T03470022  RH  013%=      5-min Rain = 0
KVA1 252126Z 34005KT 35/02 A2999 RMK A01 T03450021  RH  013%=      5-min Rain = 0
KVA1 252127Z 01005KT 34/02 A2999 RMK A01 T03440021  RH  013%=      5-min Rain = 0
KVA1 252128Z 01005KT 35/02 A30 RMK A01 T03450023  RH  013%=      5-min Rain = 0
KVA1 252129Z 00004KT 35/02 A30 RMK A01 T03470022  RH  013%=      5-min Rain = 0
KVA1 252130Z 01005KT 35/02 A2999 RMK A01 T03450020  RH  013%=      5-min Rain = 0
KVA1 252131Z 36006KT 34/02 A2999 RMK A01 T03440020  RH  013%=      5-min Rain = 0
KVA1 252132Z 34004KT 34/02 A30 RMK A01 T03420020  RH  013%=      5-min Rain = 0
KVA1 252133Z 09001KT 34/02 A2999 RMK A01 T03420021  RH  013%=      5-min Rain = 0
KVA1 252134Z 32002KT 34/02 A2999 RMK A01 T03420020  RH  013%=      5-min Rain = 0
KVA1 252135Z 01002KT 34/02 A2999 RMK A01 T03420021  RH  013%=      5-min Rain = 0
KVA1 252136Z 33004KT 34/02 A2999 RMK A01 T03440023  RH  013%=      5-min Rain = 0
KVA1 252137Z 02006KT 35/03 A2999 RMK A01 T03470025  RH  013%=      5-min Rain = 0
KVA1 252138Z 00008KT 35/02 A2999 RMK A01 T03500024  RH  013%=      5-min Rain = 0
KVA1 252139Z 33006KT 35/03 A2999 RMK A01 T03530027  RH  013%=      5-min Rain = 0
KVA1 252140Z 34007KT 35/02 A2999 RMK A01 T03540024  RH  013%=      5-min Rain = 0
KVA1 252141Z 00007KT 36/03 A2999 RMK A01 T03550025  RH  013%=      5-min Rain = 0
KVA1 252142Z 34004KT 35/02 A2999 RMK A01 T03540022  RH  012%=      5-min Rain = 0
KVA1 252143Z 33004KT 35/02 A2999 RMK A01 T03530022  RH  012%=      5-min Rain = 0
KVA1 252144Z 35002KT 35/02 A2999 RMK A01 T03510021  RH  013%=      5-min Rain = 0
KVA1 252145Z 04004KT 35/02 A2999 RMK A01 T03520023  RH  013%=      5-min Rain = 0
KVA1 252146Z 03005KT 35/02 A2999 RMK A01 T03530023  RH  013%=      5-min Rain = 0
KVA1 252147Z 02005KT 36/02 A2999 RMK A01 T03550024  RH  013%=      5-min Rain = 0
KVA1 252148Z 36006KT 36/02 A2999 RMK A01 T03570022  RH  012%=      5-min Rain = 0
KVA1 252149Z 35005KT 36/02 A2999 RMK A01 T03570022  RH  012%=      5-min Rain = 0
KVA1 252150Z 01006KT 36/02 A2999 RMK A01 T03580023  RH  012%=      5-min Rain = 0
KVA1 252151Z 00007KT 36/02 A2999 RMK A01 T03590024  RH  012%=      5-min Rain = 0
KVA1 252152Z 34008KT 36/02 A2999 RMK A01 T03600024  RH  012%=      5-min Rain = 0
KVA1 252153Z 33006KT 36/02 A2999 RMK A01 T03590021  RH  012%=      5-min Rain = 0
KVA1 252154Z 29003KT 36/02 A2999 RMK A01 T03570019  RH  012%=      5-min Rain = 0
KVA1 252155Z 28004KT 36/02 A2999 RMK A01 T03550017  RH  012%=      5-min Rain = 0
KVA1 252156Z 23004KT 35/02 A2999 RMK A01 T03530018  RH  012%=      5-min Rain = 0
KVA1 252157Z 22002KT 35/02 A2999 RMK A01 T03530018  RH  012%=      5-min Rain = 0
KVA1 252158Z 24001KT 35/02 A2999 RMK A01 T03530018  RH  012%=      5-min Rain = 0
KVA1 252159Z 02003KT 36/02 A2999 RMK A01 T03560021  RH  012%=      5-min Rain = 0
KVA1 252200Z 35006KT 36/02 A2999 RMK A01 T03570020  RH  012%=      5-min Rain = 0
KVA1 252201Z 35006KT 36/02 A2999 RMK A01 T03580020  RH  012%=      5-min Rain = 0
KVA1 252202Z 33005KT 36/02 A2999 RMK A01 T03580019  RH  012%=      5-min Rain = 0
KVA1 252203Z 31003KT 36/02 A2999 RMK A01 T03580019  RH  012%=      5-min Rain = 0
KVA1 252204Z 30002KT 36/02 A2999 RMK A01 T03570019  RH  012%=      5-min Rain = 0
KVA1 252205Z 25001KT 36/02 A2998 RMK A01 T03560019  RH  012%=      5-min Rain = 0
KVA1 252206Z 07001G6KT 36/02 A2998 RMK A01 T03570020  RH  012%=      5-min Rain = 0
KVA1 252207Z 07005KT 36/02 A2998 RMK A01 T03570018  RH  012%=      5-min Rain = 0
KVA1 252208Z 03009KT 36/02 A2998 RMK A01 T03560021  RH  012%=      5-min Rain = 0
KVA1 252209Z 01007KT 36/02 A2998 RMK A01 T03550018  RH  012%=      5-min Rain = 0
KVA1 252210Z 34004KT 35/02 A2998 RMK A01 T03530018  RH  012%=      5-min Rain = 0
KVA1 252211Z 33001KT 35/02 A2998 RMK A01 T03520017  RH  012%=      5-min Rain = 0
KVA1 252212Z 01001KT 35/02 A2998 RMK A01 T03500015  RH  012%=      5-min Rain = 0
KVA1 252213Z 01003KT 35/02 A2998 RMK A01 T03500017  RH  012%=      5-min Rain = 0
KVA1 252214Z 03005KT 35/02 A2998 RMK A01 T03510018  RH  012%=      5-min Rain = 0
KVA1 252215Z 02005KT 35/02 A2998 RMK A01 T03510018  RH  012%=      5-min Rain = 0
KVA1 252216Z 05003KT 35/02 A2998 RMK A01 T03490017  RH  012%=      5-min Rain = 0
KVA1 252217Z 08003KT 35/02 A2998 RMK A01 T03470018  RH  013%=      5-min Rain = 0
KVA1 252218Z 10006KT 35/02 A2998 RMK A01 T03470020  RH  013%=      5-min Rain = 0
KVA1 252219Z 09003KT 35/02 A2998 RMK A01 T03490018  RH  012%=      5-min Rain = 0
KVA1 252220Z 06002KT 35/02 A2998 RMK A01 T03500019  RH  012%=      5-min Rain = 0
KVA1 252221Z 05001KT 35/02 A2998 RMK A01 T03510019  RH  012%=      5-min Rain = 0
KVA1 252222Z 08002KT 35/02 A2998 RMK A01 T03520020  RH  012%=      5-min Rain = 0
KVA1 252223Z 05003KT 35/02 A2998 RMK A01 T03530020  RH  012%=      5-min Rain = 0
KVA1 252224Z 02005KT 35/02 A2998 RMK A01 T03540020  RH  012%=      5-min Rain = 0
KVA1 252225Z 03005KT 35/02 A2998 RMK A01 T03540018  RH  012%=      5-min Rain = 0
KVA1 252226Z 04007KT 35/02 A2998 RMK A01 T03540019  RH  012%=      5-min Rain = 0
KVA1 252227Z 02006KT 35/02 A2998 RMK A01 T03530018  RH  012%=      5-min Rain = 0
KVA1 252228Z 02006KT 35/02 A2998 RMK A01 T03530019  RH  012%=      5-min Rain = 0
KVA1 252229Z 05004KT 35/02 A2998 RMK A01 T03510017  RH  012%=      5-min Rain = 0
KVA1 252230Z 06003KT 35/02 A2998 RMK A01 T03510017  RH  012%=      5-min Rain = 0
KVA1 252231Z 11003KT 35/02 A2998 RMK A01 T03500016  RH  012%=      5-min Rain = 0
KVA1 252232Z 13004KT 35/02 A2998 RMK A01 T03500017  RH  012%=      5-min Rain = 0
KVA1 252233Z 13003KT 35/02 A2998 RMK A01 T03490017  RH  012%=      5-min Rain = 0
KVA1 252234Z 12003KT 35/02 A2998 RMK A01 T03490019  RH  013%=      5-min Rain = 0
KVA1 252235Z 12003KT 35/02 A2998 RMK A01 T03510019  RH  012%=      5-min Rain = 0
KVA1 252236Z 12003KT 35/02 A2998 RMK A01 T03520018  RH  012%=      5-min Rain = 0
KVA1 252237Z 02005KT 35/02 A2998 RMK A01 T03520019  RH  012%=      5-min Rain = 0
KVA1 252238Z 34004KT 35/02 A2998 RMK A01 T03530018  RH  012%=      5-min Rain = 0
KVA1 252239Z 34002KT 35/02 A2998 RMK A01 T03530018  RH  012%=      5-min Rain = 0
KVA1 252240Z 04001KT 35/02 A2998 RMK A01 T03540020  RH  012%=      5-min Rain = 0
KVA1 252241Z 04002KT 36/02 A2998 RMK A01 T03560019  RH  012%=      5-min Rain = 0
KVA1 252242Z 04001KT 36/02 A2998 RMK A01 T03560020  RH  012%=      5-min Rain = 0
KVA1 252243Z 11003KT 36/02 A2998 RMK A01 T03550020  RH  012%=      5-min Rain = 0
KVA1 252244Z 07006KT 36/02 A2998 RMK A01 T03550022  RH  012%=      5-min Rain = 0
KVA1 252245Z 06006KT 36/02 A2998 RMK A01 T03550019  RH  012%=      5-min Rain = 0
KVA1 252246Z 06006KT 35/02 A2998 RMK A01 T03540019  RH  012%=      5-min Rain = 0
KVA1 252247Z 05007KT 35/02 A2998 RMK A01 T03520018  RH  012%=      5-min Rain = 0
KVA1 252248Z 05004KT 35/02 A2998 RMK A01 T03520019  RH  012%=      5-min Rain = 0
KVA1 252249Z 06003KT 35/02 A2998 RMK A01 T03520018  RH  012%=      5-min Rain = 0
KVA1 252250Z 04002KT 35/02 A2998 RMK A01 T03510017  RH  012%=      5-min Rain = 0
KVA1 252251Z 09003KT 35/02 A2998 RMK A01 T03520018  RH  012%=      5-min Rain = 0
KVA1 252252Z 11003KT 35/02 A2998 RMK A01 T03530019  RH  012%=      5-min Rain = 0
KVA1 252253Z 12002KT 35/02 A2998 RMK A01 T03530018  RH  012%=      5-min Rain = 0
KVA1 252254Z 12004KT 35/02 A2998 RMK A01 T03530019  RH  012%=      5-min Rain = 0
KVA1 252255Z 16002KT 35/02 A2998 RMK A01 T03530018  RH  012%=      5-min Rain = 0
KVA1 252256Z 15003KT 35/02 A2998 RMK A01 T03520020  RH  012%=      5-min Rain = 0
KVA1 252257Z 17002KT 35/02 A2998 RMK A01 T03520018  RH  012%=      5-min Rain = 0
KVA1 252258Z 18002KT 35/02 A2998 RMK A01 T03530019  RH  012%=      5-min Rain = 0
KVA1 252259Z 16004KT 35/02 A2998 RMK A01 T03530019  RH  012%=      5-min Rain = 0
KVA1 252300Z 19002KT 35/02 A2998 RMK A01 T03540020  RH  012%=      5-min Rain = 0
KVA1 252301Z 19002KT 35/02 A2998 RMK A01 T03540019  RH  012%=      5-min Rain = 0
KVA1 252302Z 22001KT 35/02 A2998 RMK A01 T03540019  RH  012%=      5-min Rain = 0
KVA1 252303Z 18000KT 35/02 A2998 RMK A01 T03540018  RH  012%=      5-min Rain = 0
KVA1 252304Z 16001KT 36/02 A2998 RMK A01 T03550019  RH  012%=      5-min Rain = 0
KVA1 252305Z 00000KT 36/02 A2998 RMK A01 T03560019  RH  012%=      5-min Rain = 0
KVA1 252306Z 30000KT 36/02 A2998 RMK A01 T03570021  RH  012%=      5-min Rain = 0
KVA1 252307Z 36001KT 36/02 A2998 RMK A01 T03580021  RH  012%=      5-min Rain = 0
KVA1 252308Z 01002KT 36/02 A2998 RMK A01 T03590020  RH  012%=      5-min Rain = 0
KVA1 252309Z 36001KT 36/02 A2998 RMK A01 T03580020  RH  012%=      5-min Rain = 0
KVA1 252310Z 00003KT 36/02 A2998 RMK A01 T03580020  RH  012%=      5-min Rain = 0
KVA1 252311Z 01002KT 36/02 A2998 RMK A01 T03550020  RH  012%=      5-min Rain = 0
KVA1 252312Z 02003KT 35/02 A2998 RMK A01 T03540021  RH  012%=      5-min Rain = 0
KVA1 252313Z 03005KT 35/02 A2998 RMK A01 T03540021  RH  012%=      5-min Rain = 0
KVA1 252314Z 33005KT 36/02 A2998 RMK A01 T03550024  RH  013%=      5-min Rain = 0
KVA1 252315Z 33006KT 36/02 A2998 RMK A01 T03550023  RH  012%=      5-min Rain = 0
KVA1 252316Z 34005KT 36/02 A2998 RMK A01 T03550021  RH  012%=      5-min Rain = 0
KVA1 252317Z 36003KT 36/02 A2998 RMK A01 T03550023  RH  012%=      5-min Rain = 0
KVA1 252318Z 34005KT 36/02 A2998 RMK A01 T03560021  RH  012%=      5-min Rain = 0
KVA1 252319Z 00005KT 35/02 A2998 RMK A01 T03540021  RH  012%=      5-min Rain = 0
KVA1 252320Z 36007KT 35/02 A2998 RMK A01 T03540022  RH  012%=      5-min Rain = 0
KVA1 252321Z 35007KT 35/02 A2997 RMK A01 T03540020  RH  012%=      5-min Rain = 0
KVA1 252322Z 02007KT 35/02 A2997 RMK A01 T03530021  RH  012%=      5-min Rain = 0
KVA1 252323Z 03008KT 35/02 A2997 RMK A01 T03530022  RH  013%=      5-min Rain = 0
KVA1 252324Z 02008KT 35/02 A2997 RMK A01 T03520022  RH  013%=      5-min Rain = 0
KVA1 252325Z 01008KT 35/02 A2997 RMK A01 T03520023  RH  013%=      5-min Rain = 0
KVA1 252326Z 36007KT 35/02 A2997 RMK A01 T03530022  RH  013%=      5-min Rain = 0
KVA1 252327Z 01010KT 35/02 A2997 RMK A01 T03520021  RH  012%=      5-min Rain = 0
KVA1 252328Z 01009KT 35/02 A2997 RMK A01 T03530021  RH  012%=      5-min Rain = 0
KVA1 252329Z 01009KT 35/02 A2997 RMK A01 T03520022  RH  013%=      5-min Rain = 0
KVA1 252330Z 01008KT 35/02 A2997 RMK A01 T03510021  RH  013%=      5-min Rain = 0
KVA1 252331Z 03008KT 35/02 A2997 RMK A01 T03510022  RH  013%=      5-min Rain = 0
KVA1 252332Z 02008KT 35/02 A2997 RMK A01 T03510021  RH  013%=      5-min Rain = 0
KVA1 252333Z 03007KT 35/02 A2997 RMK A01 T03510021  RH  013%=      5-min Rain = 0
KVA1 252334Z 03009KT 35/02 A2997 RMK A01 T03510021  RH  013%=      5-min Rain = 0
KVA1 252335Z 02008KT 35/02 A2997 RMK A01 T03500021  RH  013%=      5-min Rain = 0
KVA1 252336Z 02007KT 35/02 A2997 RMK A01 T03500022  RH  013%=      5-min Rain = 0
KVA1 252337Z 01009KT 35/02 A2997 RMK A01 T03500023  RH  013%=      5-min Rain = 0
KVA1 252338Z 36009KT 35/02 A2997 RMK A01 T03500022  RH  013%=      5-min Rain = 0
KVA1 252339Z 01006KT 35/02 A2997 RMK A01 T03490020  RH  013%=      5-min Rain = 0
KVA1 252340Z 00003KT 35/02 A2997 RMK A01 T03480020  RH  013%=      5-min Rain = 0
KVA1 252341Z 32002KT 35/02 A2997 RMK A01 T03480021  RH  013%=      5-min Rain = 0
KVA1 252342Z 33001KT 35/02 A2997 RMK A01 T03490022  RH  013%=      5-min Rain = 0
KVA1 252343Z 36002KT 35/02 A2997 RMK A01 T03500022  RH  013%=      5-min Rain = 0
KVA1 252344Z 04003KT 35/02 A2997 RMK A01 T03510021  RH  013%=      5-min Rain = 0
KVA1 252345Z 03005KT 35/02 A2997 RMK A01 T03510019  RH  012%=      5-min Rain = 0
KVA1 252346Z 03005KT 35/02 A2997 RMK A01 T03490018  RH  012%=      5-min Rain = 0
KVA1 252347Z 03004KT 35/02 A2997 RMK A01 T03490020  RH  013%=      5-min Rain = 0
KVA1 252348Z 04004KT 35/02 A2997 RMK A01 T03490019  RH  013%=      5-min Rain = 0
KVA1 252349Z 04004KT 35/02 A2997 RMK A01 T03490018  RH  012%=      5-min Rain = 0
KVA1 252350Z 05004KT 35/02 A2997 RMK A01 T03490018  RH  012%=      5-min Rain = 0
KVA1 252351Z 05004KT 35/02 A2997 RMK A01 T03490019  RH  013%=      5-min Rain = 0
KVA1 252352Z 03003KT 35/02 A2997 RMK A01 T03490020  RH  013%=      5-min Rain = 0
KVA1 252353Z 06003KT 35/02 A2997 RMK A01 T03490021  RH  013%=      5-min Rain = 0
KVA1 252354Z 05007KT 35/02 A2997 RMK A01 T03490022  RH  013%=      5-min Rain = 0
KVA1 252355Z 04007KT 35/02 A2997 RMK A01 T03490021  RH  013%=      5-min Rain = 0
KVA1 252356Z 05006KT 35/02 A2997 RMK A01 T03470018  RH  013%=      5-min Rain = 0
KVA1 252357Z 05005KT 35/02 A2997 RMK A01 T03460019  RH  013%=      5-min Rain = 0
KVA1 252358Z 05006KT 35/02 A2997 RMK A01 T03460018  RH  013%=      5-min Rain = 0
KVA1 252359Z 03004KT 35/02 A2997 RMK A01 T03450019  RH  013%=      5-min Rain = 0
KVA1 260000Z 04005KT 35/02 A2997 RMK A01 T03450020  RH  013%=      5-min Rain = 0
KVA1 260001Z 05004KT 34/02 A2997 RMK A01 T03440020  RH  013%=      5-min Rain = 0
KVA1 260002Z 06003KT 34/02 A2997 RMK A01 T03440019  RH  013%=      5-min Rain = 0
KVA1 260003Z 06002KT 34/02 A2997 RMK A01 T03430019  RH  013%=      5-min Rain = 0
KVA1 260004Z 06004KT 34/02 A2997 RMK A01 T03430021  RH  013%=      5-min Rain = 0
KVA1 260005Z 07004KT 34/03 A2997 RMK A01 T03430025  RH  013%=      5-min Rain = 0
KVA1 260006Z 07005KT 34/03 A2997 RMK A01 T03430026  RH  014%=      5-min Rain = 0
KVA1 260007Z 07005KT 34/02 A2997 RMK A01 T03420022  RH  013%=      5-min Rain = 0
KVA1 260008Z 08005KT 34/02 A2997 RMK A01 T03420022  RH  013%=      5-min Rain = 0
KVA1 260009Z 07005KT 34/03 A2997 RMK A01 T03410025  RH  014%=      5-min Rain = 0
KVA1 260010Z 06007KT 34/03 A2997 RMK A01 T03400025  RH  014%=      5-min Rain = 0
KVA1 260011Z 06005KT 34/03 A2997 RMK A01 T03400025  RH  014%=      5-min Rain = 0
KVA1 260012Z 05003KT 34/03 A2997 RMK A01 T03400026  RH  014%=      5-min Rain = 0
KVA1 260013Z 06003KT 34/03 A2997 RMK A01 T03400026  RH  014%=      5-min Rain = 0
KVA1 260014Z 06002KT 34/03 A2997 RMK A01 T03400026  RH  014%=      5-min Rain = 0
KVA1 260015Z 08002KT 34/03 A2997 RMK A01 T03400027  RH  014%=      5-min Rain = 0
KVA1 260016Z 09002KT 34/03 A2997 RMK A01 T03400030  RH  014%=      5-min Rain = 0
KVA1 260017Z 11002KT 34/03 A2997 RMK A01 T03390029  RH  014%=      5-min Rain = 0
KVA1 260018Z 11003KT 34/03 A2997 RMK A01 T03390027  RH  014%=      5-min Rain = 0
KVA1 260019Z 11003KT 34/03 A2997 RMK A01 T03390028  RH  014%=      5-min Rain = 0
KVA1 260020Z 10003KT 34/03 A2997 RMK A01 T03380026  RH  014%=      5-min Rain = 0
KVA1 260021Z 11003KT 34/03 A2998 RMK A01 T03380026  RH  014%=      5-min Rain = 0
KVA1 260022Z 10002KT 34/03 A2998 RMK A01 T03380026  RH  014%=      5-min Rain = 0
KVA1 260023Z 10002KT 34/03 A2998 RMK A01 T03370026  RH  014%=      5-min Rain = 0
KVA1 260024Z 12002KT 34/03 A2998 RMK A01 T03370027  RH  014%=      5-min Rain = 0
KVA1 260025Z 12001KT 34/03 A2998 RMK A01 T03370027  RH  014%=      5-min Rain = 0
KVA1 260026Z 10001KT 34/03 A2998 RMK A01 T03370027  RH  014%=      5-min Rain = 0
KVA1 260027Z 12001KT 34/03 A2998 RMK A01 T03370027  RH  014%=      5-min Rain = 0
KVA1 260028Z 13000KT 34/03 A2998 RMK A01 T03370030  RH  014%=      5-min Rain = 0
KVA1 260029Z 18000KT 34/03 A2998 RMK A01 T03370029  RH  014%=      5-min Rain = 0
KVA1 260030Z 20001KT 34/03 A2998 RMK A01 T03370028  RH  014%=      5-min Rain = 0
KVA1 260031Z 18001KT 34/03 A2998 RMK A01 T03370032  RH  015%=      5-min Rain = 0
KVA1 260032Z 19002KT 34/03 A2998 RMK A01 T03360032  RH  015%=      5-min Rain = 0
KVA1 260033Z 18002KT 34/03 A2998 RMK A01 T03350030  RH  015%=      5-min Rain = 0
KVA1 260034Z 18002KT 33/03 A2998 RMK A01 T03340030  RH  015%=      5-min Rain = 0
KVA1 260035Z 18003KT 33/03 A2998 RMK A01 T03330032  RH  015%=      5-min Rain = 0
KVA1 260036Z 18003KT 33/03 A2998 RMK A01 T03320032  RH  015%=      5-min Rain = 0
KVA1 260037Z 17003KT 33/03 A2998 RMK A01 T03300032  RH  015%=      5-min Rain = 0
KVA1 260038Z 17003KT 33/03 A2998 RMK A01 T03290032  RH  015%=      5-min Rain = 0
KVA1 260039Z 17004KT 33/03 A2998 RMK A01 T03270034  RH  016%=      5-min Rain = 0
KVA1 260040Z 17004KT 33/03 A2998 RMK A01 T03250033  RH  016%=      5-min Rain = 0
KVA1 260041Z 17003KT 32/03 A2998 RMK A01 T03240030  RH  016%=      5-min Rain = 0
KVA1 260042Z 15004KT 32/03 A2998 RMK A01 T03230028  RH  015%=      5-min Rain = 0
KVA1 260043Z 16003KT 32/03 A2998 RMK A01 T03230027  RH  015%=      5-min Rain = 0
KVA1 260044Z 18002KT 32/03 A2998 RMK A01 T03230026  RH  015%=      5-min Rain = 0
KVA1 260045Z 25003KT 32/03 A2998 RMK A01 T03230030  RH  016%=      5-min Rain = 0
KVA1 260046Z 25005KT 32/03 A2998 RMK A01 T03190030  RH  016%=      5-min Rain = 0
KVA1 260047Z 25005KT 32/03 A2998 RMK A01 T03170030  RH  016%=      5-min Rain = 0
KVA1 260048Z 24004KT 32/03 A2998 RMK A01 T03160027  RH  016%=      5-min Rain = 0
KVA1 260049Z 25004KT 32/03 A2998 RMK A01 T03160027  RH  016%=      5-min Rain = 0
KVA1 260050Z 26003KT 32/03 A2998 RMK A01 T03160026  RH  016%=      5-min Rain = 0
KVA1 260051Z 24003KT 32/03 A2998 RMK A01 T03160026  RH  016%=      5-min Rain = 0
KVA1 260052Z 24003KT 32/03 A2998 RMK A01 T03160026  RH  016%=      5-min Rain = 0
KVA1 260053Z 24004KT 32/03 A2998 RMK A01 T03150026  RH  016%=      5-min Rain = 0
KVA1 260054Z 23004KT 32/03 A2998 RMK A01 T03150026  RH  016%=      5-min Rain = 0
KVA1 260055Z 24004KT 31/03 A2998 RMK A01 T03140027  RH  016%=      5-min Rain = 0
KVA1 260056Z 24004KT 31/03 A2998 RMK A01 T03130028  RH  016%=      5-min Rain = 0
KVA1 260057Z 23004KT 31/03 A2998 RMK A01 T03120028  RH  016%=      5-min Rain = 0
KVA1 260058Z 21005KT 31/03 A2998 RMK A01 T03110027  RH  016%=      5-min Rain = 0
KVA1 260059Z 22004KT 31/03 A2998 RMK A01 T03110027  RH  016%=      5-min Rain = 0
KVA1 260100Z 22003KT 31/03 A2998 RMK A01 T03110027  RH  016%=      5-min Rain = 0
KVA1 260101Z 21004KT 31/03 A2998 RMK A01 T03120025  RH  016%=      5-min Rain = 0
KVA1 260102Z 21004KT 31/03 A2998 RMK A01 T03120027  RH  016%=      5-min Rain = 0
KVA1 260103Z 19003KT 31/03 A2998 RMK A01 T03120026  RH  016%=      5-min Rain = 0
KVA1 260104Z 20002KT 31/03 A2998 RMK A01 T03130025  RH  016%=      5-min Rain = 0
KVA1 260105Z 19003KT 31/03 A2998 RMK A01 T03140025  RH  016%=      5-min Rain = 0
KVA1 260106Z 18003KT 31/03 A2998 RMK A01 T03140026  RH  016%=      5-min Rain = 0
KVA1 260107Z 16003KT 31/02 A2998 RMK A01 T03140022  RH  016%=      5-min Rain = 0
KVA1 260108Z 15003KT 32/02 A2998 RMK A01 T03150023  RH  016%=      5-min Rain = 0
KVA1 260109Z 15003KT 32/02 A2998 RMK A01 T03150024  RH  016%=      5-min Rain = 0
KVA1 260110Z 14003KT 31/03 A2998 RMK A01 T03140025  RH  016%=      5-min Rain = 0
KVA1 260111Z 14003KT 31/03 A2998 RMK A01 T03120027  RH  016%=      5-min Rain = 0
KVA1 260112Z 15002KT 31/03 A2998 RMK A01 T03110028  RH  017%=      5-min Rain = 0
KVA1 260113Z 16002KT 31/03 A2998 RMK A01 T03080028  RH  017%=      5-min Rain = 0
KVA1 260114Z 18002KT 31/03 A2998 RMK A01 T03070028  RH  017%=      5-min Rain = 0
KVA1 260115Z 20003KT 30/03 A2999 RMK A01 T03020030  RH  018%=      5-min Rain = 0
KVA1 260116Z 21004KT 30/03 A2999 RMK A01 T02960027  RH  018%=      5-min Rain = 0
KVA1 260117Z 21004KT 29/03 A2999 RMK A01 T02920028  RH  018%=      5-min Rain = 0
KVA1 260118Z 21004KT 29/03 A2999 RMK A01 T02900027  RH  019%=      5-min Rain = 0
KVA1 260119Z 20004KT 29/03 A2999 RMK A01 T02900028  RH  019%=      5-min Rain = 0
KVA1 260120Z 19005KT 29/03 A2999 RMK A01 T02920026  RH  018%=      5-min Rain = 0
KVA1 260121Z 17005KT 30/03 A2999 RMK A01 T02960026  RH  018%=      5-min Rain = 0
KVA1 260122Z 17004KT 30/03 A2999 RMK A01 T02980026  RH  017%=      5-min Rain = 0
KVA1 260123Z 18004KT 30/03 A2999 RMK A01 T03000026  RH  017%=      5-min Rain = 0
KVA1 260124Z 24005KT 30/03 A2999 RMK A01 T02990027  RH  017%=      5-min Rain = 0
KVA1 260125Z 23005KT 30/02 A2999 RMK A01 T02970022  RH  017%=      5-min Rain = 0
KVA1 260126Z 24004KT 30/02 A2999 RMK A01 T02960020  RH  017%=      5-min Rain = 0
KVA1 260127Z 24004KT 30/02 A2999 RMK A01 T02970019  RH  017%=      5-min Rain = 0
KVA1 260128Z 25003KT 30/02 A2999 RMK A01 T02970019  RH  017%=      5-min Rain = 0
KVA1 260129Z 25003KT 30/02 A2999 RMK A01 T02970017  RH  017%=      5-min Rain = 0
KVA1 260130Z 25003KT 30/02 A2999 RMK A01 T02980016  RH  016%=      5-min Rain = 0
KVA1 260131Z 24004KT 30/02 A2999 RMK A01 T02980015  RH  016%=      5-min Rain = 0
KVA1 260132Z 23003KT 30/01 A2999 RMK A01 T02990013  RH  016%=      5-min Rain = 0
KVA1 260133Z 23003KT 30/01 A2999 RMK A01 T02990013  RH  016%=      5-min Rain = 0
KVA1 260134Z 23003KT 30/01 A2999 RMK A01 T02990014  RH  016%=      5-min Rain = 0
KVA1 260135Z 22004KT 30/01 A2999 RMK A01 T02990014  RH  016%=      5-min Rain = 0
KVA1 260136Z 23005KT 30/01 A2999 RMK A01 T02970014  RH  016%=      5-min Rain = 0
KVA1 260137Z 23005KT 29/02 A2999 RMK A01 T02940015  RH  017%=      5-min Rain = 0
KVA1 260138Z 23005KT 29/02 A2999 RMK A01 T02910016  RH  017%=      5-min Rain = 0
KVA1 260139Z 22005KT 29/01 A2999 RMK A01 T02890012  RH  017%=      5-min Rain = 0
KVA1 260140Z 23005KT 29/01 A2999 RMK A01 T02900014  RH  017%=      5-min Rain = 0
KVA1 260141Z 23005KT 29/01 A2999 RMK A01 T02910014  RH  017%=      5-min Rain = 0
KVA1 260142Z 22005KT 29/01 A2999 RMK A01 T02900014  RH  017%=      5-min Rain = 0
KVA1 260143Z 23005KT 29/02 A2999 RMK A01 T02900015  RH  017%=      5-min Rain = 0
KVA1 260144Z 22005KT 29/01 A2999 RMK A01 T02900013  RH  017%=      5-min Rain = 0
KVA1 260145Z 23005KT 29/01 A2999 RMK A01 T02900014  RH  017%=      5-min Rain = 0
KVA1 260146Z 24006KT 29/01 A2999 RMK A01 T02900011  RH  017%=      5-min Rain = 0
KVA1 260147Z 25005KT 29/01 A2999 RMK A01 T02890013  RH  017%=      5-min Rain = 0
KVA1 260148Z 27004KT 29/01 A2999 RMK A01 T02860013  RH  017%=      5-min Rain = 0
KVA1 260149Z 26005KT 28/01 A30 RMK A01 T02810013  RH  018%=      5-min Rain = 0
KVA1 260150Z 27004KT 28/01 A30 RMK A01 T02780013  RH  018%=      5-min Rain = 0
KVA1 260151Z 26003KT 28/01 A30 RMK A01 T02750014  RH  018%=      5-min Rain = 0
KVA1 260152Z 26004KT 27/02 A30 RMK A01 T02720015  RH  019%=      5-min Rain = 0
KVA1 260153Z 27004KT 27/02 A30 RMK A01 T02700015  RH  019%=      5-min Rain = 0
KVA1 260154Z 29005KT 27/01 A30 RMK A01 T02680014  RH  019%=      5-min Rain = 0
KVA1 260155Z 29005KT 27/01 A30 RMK A01 T02670014  RH  019%=      5-min Rain = 0
KVA1 260156Z 29005KT 27/01 A30 RMK A01 T02660014  RH  019%=      5-min Rain = 0
KVA1 260157Z 29004KT 27/01 A30 RMK A01 T02650014  RH  020%=      5-min Rain = 0
KVA1 260158Z 28006KT 27/01 A30 RMK A01 T02650014  RH  020%=      5-min Rain = 0
KVA1 260159Z 29006KT 27/01 A30 RMK A01 T02650014  RH  020%=      5-min Rain = 0
KVA1 260200Z 29006KT 27/01 A30 RMK A01 T02650014  RH  019%=      5-min Rain = 0
KVA1 260201Z 29006KT 27/01 A30 RMK A01 T02650013  RH  019%=      5-min Rain = 0
KVA1 260202Z 29006KT 27/01 A30 RMK A01 T02650014  RH  019%=      5-min Rain = 0
KVA1 260203Z 29006KT 27/01 A30 RMK A01 T02650014  RH  020%=      5-min Rain = 0
KVA1 260204Z 29007KT 26/01 A30 RMK A01 T02640013  RH  020%=      5-min Rain = 0
KVA1 260205Z 29007KT 26/01 A30 RMK A01 T02620014  RH  020%=      5-min Rain = 0
KVA1 260206Z 29007KT 26/01 A30 RMK A01 T02610013  RH  020%=      5-min Rain = 0
KVA1 260207Z 29007KT 26/01 A30 RMK A01 T02610014  RH  020%=      5-min Rain = 0
KVA1 260208Z 29006KT 26/01 A30 RMK A01 T02600014  RH  020%=      5-min Rain = 0
KVA1 260209Z 29006KT 26/01 A30 RMK A01 T02590014  RH  020%=      5-min Rain = 0
KVA1 260210Z 28007KT 26/01 A30 RMK A01 T02570014  RH  020%=      5-min Rain = 0
KVA1 260211Z 29007KT 26/01 A30 RMK A01 T02560014  RH  021%=      5-min Rain = 0
KVA1 260212Z 28007KT 26/01 A30 RMK A01 T02550014  RH  021%=      5-min Rain = 0
KVA1 260213Z 28007KT 26/01 A30 RMK A01 T02550013  RH  021%=      5-min Rain = 0
KVA1 260214Z 28008KT 26/01 A30 RMK A01 T02550011  RH  020%=      5-min Rain = 0
KVA1 260215Z 28007KT 26/01 A30 RMK A01 T02580011  RH  020%=      5-min Rain = 0
KVA1 260216Z 28007KT 26/01 A30 RMK A01 T02610010  RH  019%=      5-min Rain = 0
KVA1 260217Z 28008KT 26/01 A30 RMK A01 T02640010  RH  019%=      5-min Rain = 0
KVA1 260218Z 28006KT 27/01 A30 RMK A01 T02650010  RH  019%=      5-min Rain = 0
KVA1 260219Z 28007KT 27/01 A30 RMK A01 T02650010  RH  019%=      5-min Rain = 0
KVA1 260220Z 28008KT 27/01 A30 RMK A01 T02650010  RH  019%=      5-min Rain = 0
KVA1 260221Z 28008KT 27/01 A30 RMK A01 T02650009  RH  019%=      5-min Rain = 0
KVA1 260222Z 28008KT 27/01 A30 RMK A01 T02650009  RH  019%=      5-min Rain = 0
KVA1 260223Z 28008KT 27/01 A30 RMK A01 T02660009  RH  019%=      5-min Rain = 0
KVA1 260224Z 28007KT 27/01 A30 RMK A01 T02660009  RH  019%=      5-min Rain = 0
KVA1 260225Z 28006KT 27/01 A30 RMK A01 T02660009  RH  019%=      5-min Rain = 0
KVA1 260226Z 28007KT 27/01 A3001 RMK A01 T02650009  RH  019%=      5-min Rain = 0
KVA1 260227Z 28006KT 27/01 A3001 RMK A01 T02650009  RH  019%=      5-min Rain = 0
KVA1 260228Z 28007KT 26/01 A3001 RMK A01 T02640009  RH  019%=      5-min Rain = 0
KVA1 260229Z 29006KT 26/01 A3001 RMK A01 T02640009  RH  019%=      5-min Rain = 0
KVA1 260230Z 29006KT 26/01 A3001 RMK A01 T02630009  RH  019%=      5-min Rain = 0
KVA1 260231Z 29006KT 26/01 A3001 RMK A01 T02630009  RH  019%=      5-min Rain = 0
KVA1 260232Z 29006KT 26/01 A3001 RMK A01 T02620008  RH  019%=      5-min Rain = 0
KVA1 260233Z 29006KT 26/01 A3001 RMK A01 T02630009  RH  019%=      5-min Rain = 0
KVA1 260234Z 29006KT 26/01 A3001 RMK A01 T02620008  RH  019%=      5-min Rain = 0
KVA1 260235Z 28006KT 26/01 A3001 RMK A01 T02620009  RH  019%=      5-min Rain = 0
KVA1 260236Z 28006KT 26/01 A3001 RMK A01 T02610009  RH  019%=      5-min Rain = 0
KVA1 260237Z 28006KT 26/01 A3001 RMK A01 T02590009  RH  020%=      5-min Rain = 0
KVA1 260238Z 28006KT 26/01 A3001 RMK A01 T02570009  RH  020%=      5-min Rain = 0
KVA1 260239Z 28007KT 26/01 A3001 RMK A01 T02560009  RH  020%=      5-min Rain = 0
KVA1 260240Z 28006KT 25/01 A3001 RMK A01 T02540010  RH  020%=      5-min Rain = 0
KVA1 260241Z 28006KT 25/01 A3001 RMK A01 T02520010  RH  020%=      5-min Rain = 0
KVA1 260242Z 28006KT 25/01 A3001 RMK A01 T02510010  RH  021%=      5-min Rain = 0
KVA1 260243Z 28006KT 25/01 A3001 RMK A01 T02500010  RH  021%=      5-min Rain = 0
KVA1 260244Z 28005KT 25/01 A3001 RMK A01 T02490011  RH  021%=      5-min Rain = 0
KVA1 260245Z 28005KT 25/01 A3001 RMK A01 T02480011  RH  021%=      5-min Rain = 0
KVA1 260246Z 27004KT 25/01 A3001 RMK A01 T02470011  RH  021%=      5-min Rain = 0
KVA1 260247Z 28004KT 25/01 A3001 RMK A01 T02460011  RH  021%=      5-min Rain = 0
KVA1 260248Z 27003KT 25/01 A3001 RMK A01 T02460011  RH  021%=      5-min Rain = 0
KVA1 260249Z 28002KT 25/01 A3001 RMK A01 T02450011  RH  022%=      5-min Rain = 0
KVA1 260250Z 27002KT 24/01 A3001 RMK A01 T02440011  RH  022%=      5-min Rain = 0
KVA1 260251Z 27002KT 24/01 A3001 RMK A01 T02430011  RH  022%=      5-min Rain = 0
KVA1 260252Z 28003KT 24/01 A3001 RMK A01 T02430011  RH  022%=      5-min Rain = 0
KVA1 260253Z 27003KT 24/01 A3001 RMK A01 T02420012  RH  022%=      5-min Rain = 0
KVA1 260254Z 28003KT 24/01 A3001 RMK A01 T02410012  RH  022%=      5-min Rain = 0
KVA1 260255Z 28004KT 24/01 A3001 RMK A01 T02400012  RH  022%=      5-min Rain = 0
KVA1 260256Z 28005KT 24/01 A3001 RMK A01 T02390011  RH  022%=      5-min Rain = 0
KVA1 260257Z 28005KT 24/01 A3001 RMK A01 T02390011  RH  022%=      5-min Rain = 0
KVA1 260258Z 28005KT 24/01 A3001 RMK A01 T02390011  RH  022%=      5-min Rain = 0
KVA1 260259Z 27005KT 24/01 A3001 RMK A01 T02410011  RH  022%=      5-min Rain = 0
KVA1 260300Z 28005KT 24/01 A3001 RMK A01 T02430010  RH  022%=      5-min Rain = 0
KVA1 260301Z 27005KT 24/01 A3001 RMK A01 T02440010  RH  021%=      5-min Rain = 0
KVA1 260302Z 27005KT 25/01 A3001 RMK A01 T02450009  RH  021%=      5-min Rain = 0
KVA1 260303Z 27005KT 25/01 A3001 RMK A01 T02470008  RH  021%=      5-min Rain = 0
KVA1 260304Z 26005KT 25/01 A3001 RMK A01 T02500010  RH  021%=      5-min Rain = 0
KVA1 260305Z 26004KT 25/01 A3001 RMK A01 T02490012  RH  021%=      5-min Rain = 0
KVA1 260306Z 27005KT 25/01 A3001 RMK A01 T02470010  RH  021%=      5-min Rain = 0
KVA1 260307Z 27005KT 25/01 A3001 RMK A01 T02460010  RH  021%=      5-min Rain = 0
KVA1 260308Z 27005KT 25/01 A3001 RMK A01 T02470010  RH  021%=      5-min Rain = 0
KVA1 260309Z 27006KT 25/01 A3001 RMK A01 T02460008  RH  021%=      5-min Rain = 0
KVA1 260310Z 28006KT 25/01 A3001 RMK A01 T02470007  RH  021%=      5-min Rain = 0
KVA1 260311Z 28006KT 25/01 A3001 RMK A01 T02490007  RH  020%=      5-min Rain = 0
KVA1 260312Z 28006KT 25/01 A3001 RMK A01 T02510006  RH  020%=      5-min Rain = 0
KVA1 260313Z 28006KT 25/01 A3001 RMK A01 T02540006  RH  020%=      5-min Rain = 0
KVA1 260314Z 28006KT 26/01 A3001 RMK A01 T02570006  RH  019%=      5-min Rain = 0
KVA1 260315Z 28006KT 26/01 A3002 RMK A01 T02590005  RH  019%=      5-min Rain = 0
KVA1 260316Z 27005KT 26/01 A3002 RMK A01 T02610005  RH  019%=      5-min Rain = 0
KVA1 260317Z 27005KT 26/00 A3002 RMK A01 T02620004  RH  019%=      5-min Rain = 0
KVA1 260318Z 28004KT 26/00 A3002 RMK A01 T02630004  RH  018%=      5-min Rain = 0
KVA1 260319Z 26004KT 26/00 A3002 RMK A01 T02630004  RH  018%=      5-min Rain = 0
KVA1 260320Z 23002KT 26/01 A3002 RMK A01 T02620009  RH  019%=      5-min Rain = 0
KVA1 260321Z 16001KT 26/02 A3002 RMK A01 T02560016  RH  021%=      5-min Rain = 0
KVA1 260322Z 17003KT 25/02 A3002 RMK A01 T02490016  RH  022%=      5-min Rain = 0
KVA1 260323Z 17003KT 24/02 A3002 RMK A01 T02440017  RH  023%=      5-min Rain = 0
KVA1 260324Z 18003KT 24/02 A3002 RMK A01 T02390016  RH  023%=      5-min Rain = 0
KVA1 260325Z 18003KT 24/02 A3002 RMK A01 T02350015  RH  024%=      5-min Rain = 0
KVA1 260326Z 19003KT 23/02 A3002 RMK A01 T02320015  RH  024%=      5-min Rain = 0
KVA1 260327Z 20003KT 23/02 A3002 RMK A01 T02300015  RH  024%=      5-min Rain = 0
KVA1 260328Z 20003KT 23/01 A3002 RMK A01 T02290013  RH  024%=      5-min Rain = 0
KVA1 260329Z 19003KT 23/01 A3002 RMK A01 T02300014  RH  024%=      5-min Rain = 0
KVA1 260330Z 19003KT 23/01 A3002 RMK A01 T02300014  RH  024%=      5-min Rain = 0
KVA1 260331Z 20004KT 23/02 A3002 RMK A01 T02300015  RH  024%=      5-min Rain = 0
KVA1 260332Z 21004KT 23/01 A3002 RMK A01 T02300014  RH  024%=      5-min Rain = 0
KVA1 260333Z 20004KT 23/01 A3002 RMK A01 T02310013  RH  024%=      5-min Rain = 0
KVA1 260334Z 19005KT 23/01 A3002 RMK A01 T02320014  RH  024%=      5-min Rain = 0
KVA1 260335Z 19005KT 23/01 A3002 RMK A01 T02330014  RH  024%=      5-min Rain = 0
KVA1 260336Z 20004KT 23/01 A3002 RMK A01 T02330014  RH  024%=      5-min Rain = 0
KVA1 260337Z 20005KT 23/02 A3002 RMK A01 T02320015  RH  024%=      5-min Rain = 0
KVA1 260338Z 20004KT 23/01 A3002 RMK A01 T02320013  RH  024%=      5-min Rain = 0
KVA1 260339Z 21004KT 23/01 A3002 RMK A01 T02330012  RH  023%=      5-min Rain = 0
KVA1 260340Z 20004KT 23/01 A3002 RMK A01 T02340013  RH  023%=      5-min Rain = 0
KVA1 260341Z 19005KT 23/01 A3002 RMK A01 T02340013  RH  023%=      5-min Rain = 0
KVA1 260342Z 20004KT 23/01 A3002 RMK A01 T02330014  RH  024%=      5-min Rain = 0
KVA1 260343Z 19005KT 23/01 A3002 RMK A01 T02320013  RH  024%=      5-min Rain = 0
KVA1 260344Z 20006KT 23/01 A3002 RMK A01 T02320012  RH  023%=      5-min Rain = 0
KVA1 260345Z 20005KT 23/01 A3002 RMK A01 T02330011  RH  023%=      5-min Rain = 0
KVA1 260346Z 19005KT 23/01 A3002 RMK A01 T02340010  RH  023%=      5-min Rain = 0
KVA1 260347Z 19005KT 24/01 A3002 RMK A01 T02360011  RH  023%=      5-min Rain = 0
KVA1 260348Z 19005KT 24/01 A3002 RMK A01 T02370011  RH  022%=      5-min Rain = 0
KVA1 260349Z 19004KT 24/01 A3002 RMK A01 T02380011  RH  022%=      5-min Rain = 0
KVA1 260350Z 19005KT 24/01 A3002 RMK A01 T02370011  RH  022%=      5-min Rain = 0
KVA1 260351Z 19005KT 24/01 A3002 RMK A01 T02370010  RH  022%=      5-min Rain = 0
KVA1 260352Z 20006KT 24/01 A3002 RMK A01 T02370009  RH  022%=      5-min Rain = 0
KVA1 260353Z 20006KT 24/01 A3002 RMK A01 T02370008  RH  022%=      5-min Rain = 0
KVA1 260354Z 20006KT 24/01 A3002 RMK A01 T02380008  RH  022%=      5-min Rain = 0
KVA1 260355Z 20007KT 24/01 A3002 RMK A01 T02400008  RH  022%=      5-min Rain = 0
KVA1 260356Z 20006KT 24/01 A3002 RMK A01 T02420008  RH  021%=      5-min Rain = 0
KVA1 260357Z 20006KT 24/01 A3002 RMK A01 T02420008  RH  021%=      5-min Rain = 0
KVA1 260358Z 20006KT 24/01 A3002 RMK A01 T02420008  RH  021%=      5-min Rain = 0
KVA1 260359Z 20006KT 24/01 A3002 RMK A01 T02420008  RH  021%=      5-min Rain = 0
KVA1 260400Z 20006KT 24/01 A3002 RMK A01 T02420008  RH  021%=      5-min Rain = 0
KVA1 260401Z 20007KT 24/01 A3002 RMK A01 T02420006  RH  021%=      5-min Rain = 0
KVA1 260402Z 21007KT 24/01 A3002 RMK A01 T02420006  RH  021%=      5-min Rain = 0
KVA1 260403Z 21007KT 24/01 A3002 RMK A01 T02440007  RH  021%=      5-min Rain = 0
KVA1 260404Z 21007KT 24/01 A3002 RMK A01 T02430007  RH  021%=      5-min Rain = 0
KVA1 260405Z 20007KT 24/01 A3002 RMK A01 T02430006  RH  021%=      5-min Rain = 0
KVA1 260406Z 21007KT 24/01 A3002 RMK A01 T02430007  RH  021%=      5-min Rain = 0
KVA1 260407Z 21006KT 24/01 A3002 RMK A01 T02430006  RH  021%=      5-min Rain = 0
KVA1 260408Z 21007KT 24/01 A3002 RMK A01 T02430007  RH  021%=      5-min Rain = 0
KVA1 260409Z 20006KT 24/01 A3002 RMK A01 T02420007  RH  021%=      5-min Rain = 0
KVA1 260410Z 21005KT 24/01 A3002 RMK A01 T02410007  RH  021%=      5-min Rain = 0
KVA1 260411Z 22005KT 24/01 A3002 RMK A01 T02400007  RH  022%=      5-min Rain = 0
KVA1 260412Z 22004KT 24/01 A3002 RMK A01 T02390006  RH  022%=      5-min Rain = 0
KVA1 260413Z 22005KT 24/01 A3002 RMK A01 T02380006  RH  022%=      5-min Rain = 0
KVA1 260414Z 22005KT 24/01 A3002 RMK A01 T02380006  RH  022%=      5-min Rain = 0
KVA1 260415Z 25003KT 24/01 A3002 RMK A01 T02400007  RH  022%=      5-min Rain = 0
KVA1 260416Z 33003KT 24/01 A3003 RMK A01 T02400008  RH  022%=      5-min Rain = 0
KVA1 260417Z 34004KT 24/01 A3003 RMK A01 T02380007  RH  022%=      5-min Rain = 0
KVA1 260418Z 32004KT 24/01 A3003 RMK A01 T02360007  RH  022%=      5-min Rain = 0
KVA1 260419Z 28004KT 24/01 A3003 RMK A01 T02350007  RH  022%=      5-min Rain = 0
KVA1 260420Z 26003KT 24/01 A3003 RMK A01 T02360005  RH  022%=      5-min Rain = 0
KVA1 260421Z 24003KT 24/01 A3003 RMK A01 T02390006  RH  022%=      5-min Rain = 0
KVA1 260422Z 24003KT 24/01 A3003 RMK A01 T02400006  RH  021%=      5-min Rain = 0
KVA1 260423Z 26003KT 24/01 A3003 RMK A01 T02400007  RH  022%=      5-min Rain = 0
KVA1 260424Z 29003KT 24/01 A3003 RMK A01 T02380006  RH  022%=      5-min Rain = 0
KVA1 260425Z 29003KT 24/01 A3003 RMK A01 T02360006  RH  022%=      5-min Rain = 0
KVA1 260426Z 28003KT 24/01 A3003 RMK A01 T02360006  RH  022%=      5-min Rain = 0
KVA1 260427Z 27003KT 24/01 A3003 RMK A01 T02350006  RH  022%=      5-min Rain = 0
KVA1 260428Z 26003KT 23/01 A3003 RMK A01 T02340007  RH  022%=      5-min Rain = 0
KVA1 260429Z 25004KT 23/01 A3003 RMK A01 T02340006  RH  022%=      5-min Rain = 0
KVA1 260430Z 25004KT 24/01 A3003 RMK A01 T02350006  RH  022%=      5-min Rain = 0
KVA1 260431Z 25004KT 24/01 A3003 RMK A01 T02370006  RH  022%=      5-min Rain = 0
KVA1 260432Z 24005KT 24/01 A3003 RMK A01 T02370006  RH  022%=      5-min Rain = 0
KVA1 260433Z 24006KT 24/01 A3003 RMK A01 T02370006  RH  022%=      5-min Rain = 0
KVA1 260434Z 24007KT 24/01 A3003 RMK A01 T02350007  RH  022%=      5-min Rain = 0
KVA1 260435Z 24008KT 23/01 A3003 RMK A01 T02330006  RH  022%=      5-min Rain = 0
KVA1 260436Z 25008KT 23/01 A3003 RMK A01 T02320007  RH  023%=      5-min Rain = 0
KVA1 260437Z 24007KT 23/01 A3003 RMK A01 T02330007  RH  023%=      5-min Rain = 0
KVA1 260438Z 23006KT 23/01 A3003 RMK A01 T02340007  RH  022%=      5-min Rain = 0
KVA1 260439Z 23007KT 23/01 A3003 RMK A01 T02340007  RH  022%=      5-min Rain = 0
KVA1 260440Z 22006KT 24/01 A3003 RMK A01 T02360009  RH  022%=      5-min Rain = 0
KVA1 260441Z 22008KT 24/01 A3003 RMK A01 T02400012  RH  022%=      5-min Rain = 0
KVA1 260442Z 24007KT 24/01 A3003 RMK A01 T02440013  RH  022%=      5-min Rain = 0
KVA1 260443Z 23008KT 25/01 A3003 RMK A01 T02460012  RH  022%=      5-min Rain = 0
KVA1 260444Z 23008KT 25/01 A3003 RMK A01 T02460013  RH  022%=      5-min Rain = 0
KVA1 260445Z 24008KT 25/01 A3003 RMK A01 T02470014  RH  022%=      5-min Rain = 0
KVA1 260446Z 24008KT 25/01 A3003 RMK A01 T02470014  RH  022%=      5-min Rain = 0
KVA1 260447Z 25007KT 25/02 A3003 RMK A01 T02480015  RH  022%=      5-min Rain = 0
KVA1 260448Z 24008KT 25/01 A3003 RMK A01 T02460014  RH  022%=      5-min Rain = 0
KVA1 260449Z 24009KT 25/01 A3003 RMK A01 T02450014  RH  022%=      5-min Rain = 0
KVA1 260450Z 23008KT 25/02 A3003 RMK A01 T02450016  RH  022%=      5-min Rain = 0
KVA1 260451Z 22009KT 25/02 A3003 RMK A01 T02450016  RH  022%=      5-min Rain = 0
KVA1 260452Z 22008KT 25/02 A3003 RMK A01 T02460018  RH  022%=      5-min Rain = 0
KVA1 260453Z 22009KT 25/02 A3003 RMK A01 T02470019  RH  022%=      5-min Rain = 0
KVA1 260454Z 22007KT 25/02 A3003 RMK A01 T02470019  RH  022%=      5-min Rain = 0
KVA1 260455Z 21008KT 25/02 A3003 RMK A01 T02480020  RH  023%=      5-min Rain = 0
KVA1 260456Z 21008KT 25/02 A3003 RMK A01 T02470020  RH  023%=      5-min Rain = 0
KVA1 260457Z 21008KT 25/02 A3003 RMK A01 T02470021  RH  023%=      5-min Rain = 0
KVA1 260458Z 21009KT 25/02 A3003 RMK A01 T02460020  RH  023%=      5-min Rain = 0
KVA1 260459Z 21010KT 24/02 A3003 RMK A01 T02440021  RH  023%=      5-min Rain = 0

Page generated in 0.1202 seconds.